KLM373 EHAM-KSFO
Flight info
| Callsign | KLM373 |
|---|---|
| Flight time | N/A |
| Altitude | 36000 |
| Route | BERGI L602 SUPUR P1 GODOS DCT ROXAT DCT NATEB DCT TLA DCT GINGA DCT GOMUP/M083F370 DCT 59N020W 61N030W 62N040W 63N050W DCT LIBOR/M082F380 DCT BERUS/N0485F380 DCT YFB DCT 63N080W 61N090W/N0484F400 57N100W DCT POLLE DCT WALSH DCT BOI DCT MRRLO BDEGA4 |
| Aircraft | A332/H-SDE3GHIJ2J3J5M1RVWXY/LB2D1 |
Departure
| Time | 2026-05-07 00:21 |
|---|---|
| Airport | Amsterdam Airport Schiphol (EHAM) |
Arrival
| Time | N/A |
|---|---|
| Airport | San Francisco International Airport (KSFO) |
| Time | Latitude | Longitude | Altitude | Speed | Heading |
|---|---|---|---|---|---|
| 2026-05-06 23:37 | 52.31298 | 4.76304 | 2 ft | 0 kts | 253° |
| 2026-05-07 00:03 | 52.31299 | 4.76310 | 3 ft | 3 kts | 253° |
| 2026-05-07 00:03 | 52.31306 | 4.76352 | 4 ft | 4 kts | 254° |
| 2026-05-07 00:04 | 52.31314 | 4.76394 | 4 ft | 4 kts | 253° |
| 2026-05-07 00:04 | 52.31322 | 4.76437 | 4 ft | 4 kts | 253° |
| 2026-05-07 00:04 | 52.31330 | 4.76479 | 3 ft | 4 kts | 250° |
| 2026-05-07 00:04 | 52.31341 | 4.76519 | 4 ft | 4 kts | 236° |
| 2026-05-07 00:05 | 52.31352 | 4.76541 | 6 ft | 2 kts | 214° |
| 2026-05-07 00:05 | 52.31339 | 4.76513 | 4 ft | 4 kts | 242° |
| 2026-05-07 00:05 | 52.31336 | 4.76472 | 5 ft | 4 kts | 277° |
| 2026-05-07 00:05 | 52.31350 | 4.76438 | 2 ft | 4 kts | 316° |
| 2026-05-07 00:06 | 52.31373 | 4.76419 | 2 ft | 3 kts | 341° |
| 2026-05-07 00:06 | 52.31378 | 4.76417 | 2 ft | 1 kts | 342° |
| 2026-05-07 00:09 | 52.31380 | 4.76416 | 2 ft | 2 kts | 342° |
| 2026-05-07 00:09 | 52.31405 | 4.76402 | 2 ft | 6 kts | 342° |
| 2026-05-07 00:09 | 52.31446 | 4.76358 | 3 ft | 8 kts | 303° |
| 2026-05-07 00:10 | 52.31455 | 4.76242 | 3 ft | 12 kts | 269° |
| 2026-05-07 00:10 | 52.31451 | 4.76077 | 3 ft | 17 kts | 268° |
| 2026-05-07 00:10 | 52.31444 | 4.75866 | 3 ft | 20 kts | 266° |
| 2026-05-07 00:10 | 52.31434 | 4.75616 | 3 ft | 24 kts | 266° |
| 2026-05-07 00:11 | 52.31422 | 4.75335 | 3 ft | 25 kts | 266° |
| 2026-05-07 00:11 | 52.31412 | 4.75060 | 3 ft | 24 kts | 267° |
| 2026-05-07 00:11 | 52.31404 | 4.74800 | 3 ft | 21 kts | 268° |
| 2026-05-07 00:11 | 52.31399 | 4.74565 | 3 ft | 20 kts | 267° |
| 2026-05-07 00:12 | 52.31393 | 4.74350 | 3 ft | 16 kts | 269° |
| 2026-05-07 00:12 | 52.31441 | 4.74300 | 3 ft | 8 kts | 355° |
| 2026-05-07 00:12 | 52.31505 | 4.74296 | 3 ft | 11 kts | 1° |
| 2026-05-07 00:12 | 52.31590 | 4.74301 | 3 ft | 14 kts | 2° |
| 2026-05-07 00:13 | 52.31693 | 4.74311 | 3 ft | 16 kts | 4° |
| 2026-05-07 00:13 | 52.31811 | 4.74323 | 3 ft | 17 kts | 4° |
| 2026-05-07 00:13 | 52.31926 | 4.74335 | 3 ft | 16 kts | 4° |
| 2026-05-07 00:13 | 52.32019 | 4.74284 | 3 ft | 14 kts | 309° |
| 2026-05-07 00:14 | 52.32035 | 4.74144 | 2 ft | 13 kts | 272° |
| 2026-05-07 00:14 | 52.32040 | 4.73962 | 1 ft | 19 kts | 272° |
| 2026-05-07 00:14 | 52.32048 | 4.73729 | 3 ft | 22 kts | 273° |
| 2026-05-07 00:14 | 52.32061 | 4.73458 | 3 ft | 24 kts | 283° |
| 2026-05-07 00:15 | 52.32158 | 4.73258 | 3 ft | 22 kts | 320° |
| 2026-05-07 00:15 | 52.32272 | 4.73102 | 3 ft | 21 kts | 320° |
| 2026-05-07 00:15 | 52.32376 | 4.72955 | 3 ft | 19 kts | 318° |
| 2026-05-07 00:15 | 52.32472 | 4.72817 | 3 ft | 18 kts | 319° |
| 2026-05-07 00:16 | 52.32562 | 4.72690 | 3 ft | 16 kts | 319° |
| 2026-05-07 00:16 | 52.32645 | 4.72573 | 3 ft | 15 kts | 319° |
| 2026-05-07 00:16 | 52.32715 | 4.72452 | 3 ft | 14 kts | 313° |
| 2026-05-07 00:16 | 52.32781 | 4.72332 | 3 ft | 15 kts | 311° |
| 2026-05-07 00:17 | 52.32856 | 4.72193 | 4 ft | 17 kts | 311° |
| 2026-05-07 00:17 | 52.32939 | 4.72041 | 3 ft | 18 kts | 311° |
| 2026-05-07 00:17 | 52.33017 | 4.71896 | 3 ft | 16 kts | 311° |
| 2026-05-07 00:17 | 52.33089 | 4.71761 | 3 ft | 15 kts | 310° |
| 2026-05-07 00:18 | 52.33142 | 4.71624 | 3 ft | 14 kts | 284° |
| 2026-05-07 00:18 | 52.33120 | 4.71489 | 3 ft | 12 kts | 232° |
| 2026-05-07 00:18 | 52.33061 | 4.71398 | 3 ft | 11 kts | 221° |
| 2026-05-07 00:18 | 52.33022 | 4.71342 | 3 ft | 11 kts | 220° |
| 2026-05-07 00:19 | 52.32965 | 4.71262 | 3 ft | 11 kts | 221° |
| 2026-05-07 00:19 | 52.32911 | 4.71185 | 3 ft | 10 kts | 222° |
| 2026-05-07 00:19 | 52.32868 | 4.71100 | 2 ft | 9 kts | 244° |
| 2026-05-07 00:19 | 52.32862 | 4.70995 | 2 ft | 10 kts | 275° |
| 2026-05-07 00:20 | 52.32887 | 4.70913 | 1 ft | 7 kts | 335° |
| 2026-05-07 00:20 | 52.32935 | 4.70898 | 1 ft | 7 kts | 358° |
| 2026-05-07 00:20 | 52.33087 | 4.70910 | 0 ft | 43 kts | 3° |
| 2026-05-07 00:20 | 52.33535 | 4.70959 | 2 ft | 87 kts | 2° |
| 2026-05-07 00:21 | 52.34319 | 4.71026 | 0 ft | 136 kts | 3° |
| 2026-05-07 00:21 | 52.35411 | 4.71128 | 49 ft | 173 kts | 4° |
| 2026-05-07 00:21 | 52.36604 | 4.71253 | 722 ft | 169 kts | 5° |
| 2026-05-07 00:21 | 52.37745 | 4.71337 | 1535 ft | 164 kts | 4° |
| 2026-05-07 00:22 | 52.38881 | 4.71365 | 2048 ft | 158 kts | 3° |
| 2026-05-07 00:22 | 52.39950 | 4.71375 | 2457 ft | 150 kts | 2° |
| 2026-05-07 00:22 | 52.40998 | 4.71405 | 2678 ft | 158 kts | 3° |
| 2026-05-07 00:22 | 52.42181 | 4.71371 | 2669 ft | 180 kts | 355° |
| 2026-05-07 00:23 | 52.43436 | 4.70765 | 2776 ft | 199 kts | 334° |
| 2026-05-07 00:23 | 52.44594 | 4.69244 | 2759 ft | 227 kts | 316° |
| 2026-05-07 00:23 | 52.45751 | 4.67348 | 2988 ft | 243 kts | 318° |
| 2026-05-07 00:23 | 52.46994 | 4.65396 | 3422 ft | 250 kts | 317° |
| 2026-05-07 00:24 | 52.48252 | 4.63394 | 3931 ft | 254 kts | 317° |
| 2026-05-07 00:24 | 52.49515 | 4.61359 | 4504 ft | 255 kts | 318° |
| 2026-05-07 00:24 | 52.50786 | 4.59298 | 5081 ft | 259 kts | 317° |
| 2026-05-07 00:24 | 52.52166 | 4.57392 | 5612 ft | 261 kts | 328° |
| 2026-05-07 00:25 | 52.53719 | 4.55823 | 6260 ft | 261 kts | 332° |
| 2026-05-07 00:25 | 52.55303 | 4.54338 | 6824 ft | 264 kts | 332° |
| 2026-05-07 00:25 | 52.56918 | 4.52829 | 7340 ft | 269 kts | 331° |
| 2026-05-07 00:25 | 52.58548 | 4.51309 | 7955 ft | 271 kts | 330° |
| 2026-05-07 00:26 | 52.60196 | 4.49771 | 8510 ft | 274 kts | 330° |
| 2026-05-07 00:26 | 52.61856 | 4.48211 | 9110 ft | 275 kts | 329° |
| 2026-05-07 00:26 | 52.63524 | 4.46639 | 9715 ft | 278 kts | 328° |
| 2026-05-07 00:26 | 52.65208 | 4.45044 | 10194 ft | 283 kts | 328° |
| 2026-05-07 00:27 | 52.66959 | 4.43387 | 10451 ft | 297 kts | 328° |
| 2026-05-07 00:27 | 52.68794 | 4.41653 | 10665 ft | 311 kts | 328° |
| 2026-05-07 00:27 | 52.70716 | 4.39836 | 10885 ft | 326 kts | 329° |
| 2026-05-07 00:27 | 52.72719 | 4.37927 | 11081 ft | 339 kts | 327° |
| 2026-05-07 00:28 | 52.74625 | 4.35544 | 11288 ft | 349 kts | 314° |
| 2026-05-07 00:28 | 52.76171 | 4.32381 | 11483 ft | 360 kts | 303° |
| 2026-05-07 00:28 | 52.77060 | 4.30124 | 11761 ft | 362 kts | 300° |
| 2026-05-07 00:28 | 52.78103 | 4.27163 | 12192 ft | 364 kts | 298° |
| 2026-05-07 00:29 | 52.79322 | 4.23450 | 12513 ft | 371 kts | 297° |
| 2026-05-07 00:29 | 52.80530 | 4.19677 | 13060 ft | 371 kts | 297° |
| 2026-05-07 00:30 | 52.84224 | 4.08344 | 14406 ft | 380 kts | 298° |
| 2026-05-07 00:30 | 52.85506 | 4.04509 | 14839 ft | 381 kts | 298° |
| 2026-05-07 00:30 | 52.86793 | 4.00678 | 15356 ft | 381 kts | 298° |
| 2026-05-07 00:30 | 52.88090 | 3.96822 | 15635 ft | 387 kts | 298° |
| 2026-05-07 00:31 | 52.89400 | 3.92909 | 16018 ft | 390 kts | 298° |
| 2026-05-07 00:31 | 52.90716 | 3.88971 | 16435 ft | 392 kts | 298° |
| 2026-05-07 00:31 | 52.92041 | 3.85011 | 16852 ft | 394 kts | 298° |
| 2026-05-07 00:31 | 52.93375 | 3.81023 | 17260 ft | 396 kts | 298° |
| 2026-05-07 00:32 | 52.94711 | 3.77025 | 17704 ft | 397 kts | 298° |
| 2026-05-07 00:32 | 52.96048 | 3.73012 | 18196 ft | 397 kts | 298° |
| 2026-05-07 00:32 | 52.97382 | 3.69000 | 18549 ft | 399 kts | 298° |
| 2026-05-07 00:32 | 52.98728 | 3.64945 | 18885 ft | 401 kts | 298° |
| 2026-05-07 00:33 | 53.00226 | 3.61034 | 19285 ft | 402 kts | 307° |
| 2026-05-07 00:33 | 53.02139 | 3.57630 | 19584 ft | 406 kts | 319° |
| 2026-05-07 00:33 | 53.04504 | 3.55016 | 19834 ft | 413 kts | 332° |
| 2026-05-07 00:33 | 53.07130 | 3.53020 | 20120 ft | 416 kts | 336° |
| 2026-05-07 00:34 | 53.09843 | 3.51325 | 20488 ft | 418 kts | 339° |
| 2026-05-07 00:34 | 53.12601 | 3.49775 | 20828 ft | 419 kts | 340° |
| 2026-05-07 00:34 | 53.15385 | 3.48267 | 21115 ft | 422 kts | 340° |
| 2026-05-07 00:34 | 53.18183 | 3.46746 | 21407 ft | 424 kts | 340° |
| 2026-05-07 00:35 | 53.20956 | 3.45056 | 21728 ft | 425 kts | 334° |
| 2026-05-07 00:35 | 53.23540 | 3.42694 | 22053 ft | 424 kts | 324° |
| 2026-05-07 00:35 | 53.25806 | 3.39565 | 22330 ft | 424 kts | 313° |
| 2026-05-07 00:35 | 53.27693 | 3.35775 | 22663 ft | 424 kts | 306° |
| 2026-05-07 00:36 | 53.29403 | 3.31741 | 22903 ft | 426 kts | 303° |
| 2026-05-07 00:36 | 53.31024 | 3.27577 | 23196 ft | 428 kts | 301° |
| 2026-05-07 00:36 | 53.32606 | 3.23351 | 23533 ft | 429 kts | 301° |
| 2026-05-07 00:36 | 53.34184 | 3.19094 | 23799 ft | 431 kts | 301° |
| 2026-05-07 00:37 | 53.35770 | 3.14827 | 23988 ft | 433 kts | 301° |
| 2026-05-07 00:37 | 53.37375 | 3.10548 | 24237 ft | 435 kts | 301° |
| 2026-05-07 00:37 | 53.38993 | 3.06260 | 24491 ft | 436 kts | 302° |
| 2026-05-07 00:37 | 53.40602 | 3.02016 | 24702 ft | 438 kts | 302° |
| 2026-05-07 00:38 | 53.42241 | 2.97697 | 24948 ft | 440 kts | 302° |
| 2026-05-07 00:38 | 53.43886 | 2.93363 | 25211 ft | 440 kts | 302° |
| 2026-05-07 00:38 | 53.45530 | 2.89026 | 25430 ft | 442 kts | 302° |
| 2026-05-07 00:38 | 53.47181 | 2.84659 | 25639 ft | 444 kts | 302° |
| 2026-05-07 00:39 | 53.48833 | 2.80280 | 25877 ft | 445 kts | 302° |
| 2026-05-07 00:39 | 53.50490 | 2.75880 | 26100 ft | 446 kts | 302° |
| 2026-05-07 00:39 | 53.52149 | 2.71466 | 26317 ft | 447 kts | 302° |
| 2026-05-07 00:39 | 53.53810 | 2.67037 | 26558 ft | 449 kts | 302° |
| 2026-05-07 00:40 | 53.55478 | 2.62582 | 26754 ft | 450 kts | 302° |
| 2026-05-07 00:40 | 53.57147 | 2.58115 | 26968 ft | 451 kts | 302° |
| 2026-05-07 00:40 | 53.58813 | 2.53630 | 27128 ft | 454 kts | 302° |
| 2026-05-07 00:40 | 53.60496 | 2.49111 | 27323 ft | 455 kts | 302° |
| 2026-05-07 00:41 | 53.62181 | 2.44589 | 27535 ft | 457 kts | 302° |
| 2026-05-07 00:41 | 53.63869 | 2.40047 | 27725 ft | 458 kts | 302° |
| 2026-05-07 00:41 | 53.65561 | 2.35484 | 27934 ft | 459 kts | 302° |
| 2026-05-07 00:41 | 53.67253 | 2.30907 | 28132 ft | 461 kts | 302° |
| 2026-05-07 00:42 | 53.68951 | 2.26307 | 28330 ft | 462 kts | 302° |
| 2026-05-07 00:42 | 53.70649 | 2.21695 | 28522 ft | 464 kts | 302° |
| 2026-05-07 00:42 | 53.72354 | 2.17059 | 28709 ft | 465 kts | 302° |
| 2026-05-07 00:42 | 53.74056 | 2.12421 | 29003 ft | 463 kts | 302° |
| 2026-05-07 00:43 | 53.75745 | 2.07807 | 29353 ft | 461 kts | 302° |
| 2026-05-07 00:43 | 53.77430 | 2.03197 | 29638 ft | 461 kts | 303° |
| 2026-05-07 00:43 | 53.79090 | 1.98649 | 29875 ft | 460 kts | 303° |
| 2026-05-07 00:43 | 53.80771 | 1.94035 | 30127 ft | 460 kts | 303° |
| 2026-05-07 00:44 | 53.82448 | 1.89423 | 30345 ft | 460 kts | 303° |
| 2026-05-07 00:44 | 53.84121 | 1.84813 | 30563 ft | 459 kts | 303° |
| 2026-05-07 00:44 | 53.85791 | 1.80203 | 30773 ft | 459 kts | 303° |
| 2026-05-07 00:44 | 53.87456 | 1.75597 | 30977 ft | 458 kts | 303° |
| 2026-05-07 00:45 | 53.89120 | 1.70986 | 31184 ft | 458 kts | 303° |
| 2026-05-07 00:45 | 53.90779 | 1.66380 | 31379 ft | 458 kts | 303° |
| 2026-05-07 00:45 | 53.92435 | 1.61776 | 31580 ft | 457 kts | 302° |
| 2026-05-07 00:45 | 53.94092 | 1.57159 | 31780 ft | 457 kts | 303° |
| 2026-05-07 00:46 | 53.95741 | 1.52555 | 31941 ft | 457 kts | 303° |
| 2026-05-07 00:46 | 53.97390 | 1.47943 | 32116 ft | 457 kts | 303° |
| 2026-05-07 00:46 | 53.99039 | 1.43325 | 32315 ft | 457 kts | 303° |
| 2026-05-07 00:46 | 54.00683 | 1.38710 | 32558 ft | 455 kts | 303° |
| 2026-05-07 00:47 | 54.02318 | 1.34109 | 32747 ft | 455 kts | 303° |
| 2026-05-07 00:47 | 54.03953 | 1.29502 | 32929 ft | 454 kts | 303° |
| 2026-05-07 00:47 | 54.05583 | 1.24902 | 33082 ft | 454 kts | 303° |
| 2026-05-07 00:47 | 54.07214 | 1.20290 | 33270 ft | 454 kts | 303° |
| 2026-05-07 00:48 | 54.08839 | 1.15684 | 33439 ft | 454 kts | 303° |
| 2026-05-07 00:48 | 54.10463 | 1.11075 | 33607 ft | 453 kts | 303° |
| 2026-05-07 00:48 | 54.12082 | 1.06469 | 33770 ft | 453 kts | 303° |
| 2026-05-07 00:48 | 54.13700 | 1.01861 | 33876 ft | 454 kts | 303° |
| 2026-05-07 00:49 | 54.16924 | 0.92651 | 34104 ft | 455 kts | 303° |
| 2026-05-07 00:49 | 54.18540 | 0.88018 | 34243 ft | 454 kts | 303° |
| 2026-05-07 00:49 | 54.20152 | 0.83389 | 34372 ft | 454 kts | 303° |
| 2026-05-07 00:50 | 54.21763 | 0.78754 | 34493 ft | 454 kts | 303° |
| 2026-05-07 00:50 | 54.23374 | 0.74112 | 34592 ft | 454 kts | 303° |
| 2026-05-07 00:50 | 54.24982 | 0.69468 | 34715 ft | 453 kts | 303° |
| 2026-05-07 00:50 | 54.26583 | 0.64836 | 34876 ft | 452 kts | 303° |
| 2026-05-07 00:51 | 54.28179 | 0.60210 | 35016 ft | 451 kts | 302° |
| 2026-05-07 00:51 | 54.29773 | 0.55584 | 35116 ft | 451 kts | 302° |
| 2026-05-07 00:51 | 54.32960 | 0.46306 | 35280 ft | 452 kts | 302° |
| 2026-05-07 00:52 | 54.34551 | 0.41661 | 35387 ft | 452 kts | 302° |
| 2026-05-07 00:52 | 54.36138 | 0.37017 | 35479 ft | 452 kts | 302° |
| 2026-05-07 00:52 | 54.39307 | 0.27719 | 35666 ft | 452 kts | 302° |
| 2026-05-07 00:53 | 54.42472 | 0.18400 | 35830 ft | 452 kts | 302° |
| 2026-05-07 00:53 | 54.45627 | 0.09073 | 35991 ft | 452 kts | 301° |
| 2026-05-07 00:54 | 54.48782 | -0.00290 | 36091 ft | 453 kts | 301° |
| 2026-05-07 00:54 | 54.51942 | -0.09703 | 36084 ft | 454 kts | 301° |
| 2026-05-07 00:55 | 54.55082 | -0.19095 | 36084 ft | 452 kts | 301° |
| 2026-05-07 00:55 | 54.58208 | -0.28480 | 36083 ft | 452 kts | 301° |
| 2026-05-07 00:56 | 54.61331 | -0.37890 | 36085 ft | 452 kts | 301° |
| 2026-05-07 00:56 | 54.64442 | -0.47304 | 36084 ft | 452 kts | 301° |
| 2026-05-07 00:57 | 54.67548 | -0.56736 | 36083 ft | 452 kts | 301° |
| 2026-05-07 00:57 | 54.70648 | -0.66187 | 36082 ft | 452 kts | 301° |
| 2026-05-07 00:58 | 54.73739 | -0.75650 | 36081 ft | 452 kts | 301° |
| 2026-05-07 00:58 | 54.76800 | -0.85057 | 36081 ft | 451 kts | 301° |
| 2026-05-07 00:59 | 54.81404 | -0.99274 | 36078 ft | 448 kts | 300° |
| 2026-05-07 01:00 | 54.84426 | -1.08650 | 36074 ft | 448 kts | 300° |
| 2026-05-07 01:00 | 54.87461 | -1.18106 | 36072 ft | 447 kts | 300° |
| 2026-05-07 01:01 | 54.90480 | -1.27546 | 36066 ft | 447 kts | 300° |
| 2026-05-07 01:01 | 54.93493 | -1.37006 | 36059 ft | 447 kts | 300° |
| 2026-05-07 01:02 | 54.96499 | -1.46480 | 36053 ft | 447 kts | 300° |
| 2026-05-07 01:02 | 54.99500 | -1.55978 | 36048 ft | 447 kts | 300° |
| 2026-05-07 01:03 | 55.02484 | -1.65460 | 36046 ft | 445 kts | 300° |
| 2026-05-07 01:03 | 55.05381 | -1.74959 | 36048 ft | 443 kts | 298° |
| 2026-05-07 01:04 | 55.08135 | -1.84563 | 36048 ft | 443 kts | 297° |
| 2026-05-07 01:04 | 55.10864 | -1.94204 | 36067 ft | 443 kts | 297° |
| 2026-05-07 01:05 | 55.13598 | -2.03845 | 36059 ft | 443 kts | 297° |
| 2026-05-07 01:05 | 55.15872 | -2.11865 | 36053 ft | 443 kts | 297° |
| 2026-05-07 01:06 | 55.18604 | -2.21523 | 36046 ft | 443 kts | 297° |
| 2026-05-07 01:06 | 55.21323 | -2.31175 | 36042 ft | 441 kts | 297° |
| 2026-05-07 01:07 | 55.24028 | -2.40822 | 36040 ft | 441 kts | 297° |
| 2026-05-07 01:07 | 55.26722 | -2.50468 | 36041 ft | 439 kts | 296° |
| 2026-05-07 01:08 | 55.29395 | -2.60082 | 36042 ft | 438 kts | 296° |
| 2026-05-07 01:08 | 55.32040 | -2.69636 | 36045 ft | 438 kts | 296° |
| 2026-05-07 01:09 | 55.34696 | -2.79264 | 36046 ft | 438 kts | 296° |
| 2026-05-07 01:09 | 55.37349 | -2.88924 | 36046 ft | 439 kts | 296° |
| 2026-05-07 01:10 | 55.39998 | -2.98612 | 36044 ft | 440 kts | 296° |
| 2026-05-07 01:10 | 55.42641 | -3.08317 | 36045 ft | 440 kts | 296° |
| 2026-05-07 01:11 | 55.45276 | -3.18037 | 36034 ft | 440 kts | 296° |
| 2026-05-07 01:11 | 55.47903 | -3.27766 | 36035 ft | 440 kts | 296° |
| 2026-05-07 01:12 | 55.50519 | -3.37490 | 36030 ft | 438 kts | 295° |
| 2026-05-07 01:12 | 55.53102 | -3.47239 | 36023 ft | 438 kts | 295° |
| 2026-05-07 01:13 | 55.55679 | -3.56999 | 36014 ft | 439 kts | 295° |
| 2026-05-07 01:13 | 55.58250 | -3.66772 | 36017 ft | 439 kts | 295° |
| 2026-05-07 01:14 | 55.60815 | -3.76560 | 36021 ft | 439 kts | 295° |
| 2026-05-07 01:14 | 55.63371 | -3.86357 | 36006 ft | 439 kts | 294° |
| 2026-05-07 01:15 | 55.65920 | -3.96170 | 36007 ft | 438 kts | 294° |
| 2026-05-07 01:15 | 55.68457 | -4.05982 | 36000 ft | 438 kts | 294° |
| 2026-05-07 01:16 | 55.70984 | -4.15797 | 35998 ft | 438 kts | 294° |
| 2026-05-07 01:16 | 55.73503 | -4.25624 | 35995 ft | 437 kts | 294° |
| 2026-05-07 01:17 | 55.76007 | -4.35435 | 35997 ft | 436 kts | 294° |
| 2026-05-07 01:17 | 55.78484 | -4.45185 | 35992 ft | 436 kts | 294° |
| 2026-05-07 01:18 | 55.80969 | -4.55009 | 35993 ft | 436 kts | 293° |
| 2026-05-07 01:18 | 55.83452 | -4.64868 | 35984 ft | 437 kts | 293° |
| 2026-05-07 01:19 | 55.85930 | -4.74748 | 35974 ft | 437 kts | 293° |
| 2026-05-07 01:19 | 55.88397 | -4.84633 | 35978 ft | 437 kts | 293° |
| 2026-05-07 01:20 | 55.90858 | -4.94538 | 35972 ft | 437 kts | 293° |
| 2026-05-07 01:20 | 55.93313 | -5.04463 | 35977 ft | 437 kts | 293° |
| 2026-05-07 01:21 | 55.95756 | -5.14386 | 35980 ft | 438 kts | 292° |
| 2026-05-07 01:21 | 55.98202 | -5.24363 | 35975 ft | 439 kts | 292° |
| 2026-05-07 01:22 | 56.00642 | -5.34357 | 35969 ft | 439 kts | 292° |
| 2026-05-07 01:22 | 56.03073 | -5.44367 | 35969 ft | 439 kts | 292° |
| 2026-05-07 01:23 | 56.05496 | -5.54387 | 35962 ft | 439 kts | 292° |
| 2026-05-07 01:23 | 56.07913 | -5.64428 | 35947 ft | 439 kts | 292° |
| 2026-05-07 01:24 | 56.10303 | -5.74405 | 35959 ft | 439 kts | 292° |
| 2026-05-07 01:24 | 56.12708 | -5.84494 | 35958 ft | 440 kts | 292° |
| 2026-05-07 01:25 | 56.15107 | -5.94599 | 35951 ft | 440 kts | 292° |
| 2026-05-07 01:25 | 56.17495 | -6.04709 | 35955 ft | 440 kts | 291° |
| 2026-05-07 01:26 | 56.19871 | -6.14811 | 35951 ft | 439 kts | 291° |
| 2026-05-07 01:26 | 56.22233 | -6.24906 | 35947 ft | 438 kts | 291° |
| 2026-05-07 01:27 | 56.24590 | -6.35027 | 35946 ft | 438 kts | 291° |
| 2026-05-07 01:27 | 56.26935 | -6.45143 | 35938 ft | 438 kts | 291° |
| 2026-05-07 01:28 | 56.29272 | -6.55272 | 35947 ft | 438 kts | 291° |
| 2026-05-07 01:28 | 56.31602 | -6.65420 | 35942 ft | 438 kts | 291° |
| 2026-05-07 01:29 | 56.33926 | -6.75586 | 35931 ft | 439 kts | 291° |
| 2026-05-07 01:29 | 56.36240 | -6.85760 | 35933 ft | 439 kts | 291° |
| 2026-05-07 01:30 | 56.38544 | -6.95942 | 35948 ft | 438 kts | 290° |
| 2026-05-07 01:30 | 56.40832 | -7.06098 | 35922 ft | 436 kts | 290° |
| 2026-05-07 01:31 | 56.43106 | -7.16240 | 35916 ft | 435 kts | 290° |
| 2026-05-07 01:31 | 56.45369 | -7.26387 | 35916 ft | 435 kts | 290° |
| 2026-05-07 01:32 | 56.47626 | -7.36553 | 35912 ft | 435 kts | 290° |
| 2026-05-07 01:32 | 56.49872 | -7.46722 | 35911 ft | 435 kts | 290° |
| 2026-05-07 01:33 | 56.52113 | -7.56913 | 35904 ft | 436 kts | 290° |
| 2026-05-07 01:33 | 56.54347 | -7.67128 | 35902 ft | 436 kts | 289° |
| 2026-05-07 01:34 | 56.56573 | -7.77353 | 35898 ft | 436 kts | 289° |
| 2026-05-07 01:34 | 56.58794 | -7.87606 | 35900 ft | 436 kts | 289° |
| 2026-05-07 01:35 | 56.61002 | -7.97852 | 35889 ft | 435 kts | 289° |
| 2026-05-07 01:35 | 56.63180 | -8.08005 | 35886 ft | 434 kts | 289° |
| 2026-05-07 01:36 | 56.65362 | -8.18229 | 35881 ft | 434 kts | 289° |
| 2026-05-07 01:36 | 56.67537 | -8.28474 | 35877 ft | 435 kts | 289° |
| 2026-05-07 01:37 | 56.69705 | -8.38738 | 35878 ft | 435 kts | 288° |
| 2026-05-07 01:37 | 56.71864 | -8.49008 | 35868 ft | 435 kts | 288° |
| 2026-05-07 01:38 | 56.74016 | -8.59300 | 35867 ft | 435 kts | 288° |
| 2026-05-07 01:38 | 56.76160 | -8.69602 | 35854 ft | 435 kts | 288° |
| 2026-05-07 01:39 | 56.78295 | -8.79914 | 35860 ft | 435 kts | 288° |
| 2026-05-07 01:39 | 56.80425 | -8.90259 | 35847 ft | 435 kts | 288° |
| 2026-05-07 01:40 | 56.82545 | -9.00605 | 35842 ft | 435 kts | 287° |
| 2026-05-07 01:40 | 56.84653 | -9.10942 | 35846 ft | 434 kts | 287° |
| 2026-05-07 01:41 | 56.86752 | -9.21296 | 35829 ft | 435 kts | 287° |
| 2026-05-07 01:41 | 56.88843 | -9.31662 | 35844 ft | 434 kts | 287° |
| 2026-05-07 01:42 | 56.90926 | -9.42041 | 35839 ft | 435 kts | 287° |
| 2026-05-07 01:42 | 56.92943 | -9.52473 | 35815 ft | 434 kts | 284° |
| 2026-05-07 01:43 | 56.94606 | -9.63096 | 35815 ft | 434 kts | 282° |
| 2026-05-07 01:43 | 56.96143 | -9.73714 | 35811 ft | 434 kts | 282° |
| 2026-05-07 01:44 | 56.97710 | -9.84456 | 35809 ft | 434 kts | 282° |
| 2026-05-07 01:44 | 56.99287 | -9.95136 | 35805 ft | 434 kts | 282° |
| 2026-05-07 01:45 | 57.01421 | -10.05507 | 35790 ft | 435 kts | 290° |
| 2026-05-07 01:45 | 57.03896 | -10.15595 | 35791 ft | 437 kts | 291° |
| 2026-05-07 01:46 | 57.06448 | -10.25729 | 35784 ft | 437 kts | 291° |
| 2026-05-07 01:46 | 57.08992 | -10.35875 | 35779 ft | 437 kts | 291° |
| 2026-05-07 01:47 | 57.11521 | -10.46051 | 35775 ft | 437 kts | 290° |
| 2026-05-07 01:47 | 57.14038 | -10.56253 | 35776 ft | 437 kts | 290° |
| 2026-05-07 01:48 | 57.16545 | -10.66464 | 35768 ft | 437 kts | 290° |
| 2026-05-07 01:48 | 57.19042 | -10.76683 | 35763 ft | 437 kts | 290° |
| 2026-05-07 01:49 | 57.21534 | -10.86930 | 35764 ft | 438 kts | 290° |
| 2026-05-07 01:49 | 57.24019 | -10.97192 | 35755 ft | 438 kts | 290° |
| 2026-05-07 01:50 | 57.26497 | -11.07475 | 35749 ft | 438 kts | 290° |
| 2026-05-07 01:50 | 57.28965 | -11.17765 | 35749 ft | 438 kts | 290° |
| 2026-05-07 01:51 | 57.31424 | -11.28066 | 35736 ft | 438 kts | 289° |
| 2026-05-07 01:51 | 57.33875 | -11.38380 | 35736 ft | 438 kts | 289° |
| 2026-05-07 01:52 | 57.36319 | -11.48720 | 35736 ft | 438 kts | 289° |
| 2026-05-07 01:52 | 57.38346 | -11.57332 | 35729 ft | 439 kts | 289° |
| 2026-05-07 01:53 | 57.40782 | -11.67726 | 35720 ft | 439 kts | 289° |
| 2026-05-07 01:53 | 57.43205 | -11.78109 | 35723 ft | 438 kts | 289° |
| 2026-05-07 01:54 | 57.45612 | -11.88483 | 35722 ft | 438 kts | 289° |
| 2026-05-07 01:54 | 57.48013 | -11.98879 | 35714 ft | 438 kts | 289° |
| 2026-05-07 01:55 | 57.50404 | -12.09281 | 35709 ft | 438 kts | 289° |
| 2026-05-07 01:55 | 57.52791 | -12.19718 | 35709 ft | 439 kts | 288° |
| 2026-05-07 01:56 | 57.55174 | -12.30191 | 35695 ft | 439 kts | 288° |
| 2026-05-07 01:56 | 57.57549 | -12.40674 | 35695 ft | 439 kts | 288° |
| 2026-05-07 01:57 | 57.59899 | -12.51103 | 35697 ft | 439 kts | 288° |
| 2026-05-07 01:57 | 57.62254 | -12.61601 | 35694 ft | 438 kts | 288° |
| 2026-05-07 01:58 | 57.64592 | -12.72078 | 35686 ft | 437 kts | 288° |
| 2026-05-07 01:58 | 57.66920 | -12.82569 | 35686 ft | 437 kts | 288° |
| 2026-05-07 01:59 | 57.69243 | -12.93086 | 35678 ft | 437 kts | 288° |
| 2026-05-07 01:59 | 57.71556 | -13.03610 | 35672 ft | 437 kts | 288° |
| 2026-05-07 02:00 | 57.73861 | -13.14150 | 35671 ft | 437 kts | 288° |
| 2026-05-07 02:00 | 57.76154 | -13.24687 | 35663 ft | 437 kts | 287° |
| 2026-05-07 02:01 | 57.78424 | -13.35178 | 35670 ft | 437 kts | 287° |
| 2026-05-07 02:01 | 57.80701 | -13.45748 | 35653 ft | 437 kts | 287° |
| 2026-05-07 02:02 | 57.82970 | -13.56346 | 35652 ft | 439 kts | 287° |
| 2026-05-07 02:02 | 57.85240 | -13.66997 | 35639 ft | 440 kts | 287° |
| 2026-05-07 02:03 | 57.87504 | -13.77671 | 35635 ft | 440 kts | 287° |
| 2026-05-07 02:03 | 57.89757 | -13.88349 | 35636 ft | 440 kts | 287° |
| 2026-05-07 02:04 | 57.92003 | -13.99052 | 35641 ft | 440 kts | 287° |
| 2026-05-07 02:04 | 57.94240 | -14.09770 | 35625 ft | 440 kts | 287° |
| 2026-05-07 02:05 | 57.96467 | -14.20495 | 35626 ft | 440 kts | 287° |
| 2026-05-07 02:05 | 57.98689 | -14.31257 | 35623 ft | 441 kts | 287° |
| 2026-05-07 02:06 | 58.00909 | -14.42061 | 35608 ft | 442 kts | 287° |
| 2026-05-07 02:06 | 58.03118 | -14.52871 | 35610 ft | 442 kts | 287° |
| 2026-05-07 02:07 | 58.05319 | -14.63697 | 35612 ft | 442 kts | 287° |
| 2026-05-07 02:07 | 58.08589 | -14.79898 | 35612 ft | 442 kts | 287° |
| 2026-05-07 02:08 | 58.10767 | -14.90759 | 35621 ft | 442 kts | 287° |
| 2026-05-07 02:08 | 58.12937 | -15.01647 | 35615 ft | 444 kts | 287° |
| 2026-05-07 02:09 | 58.15109 | -15.12602 | 35603 ft | 445 kts | 287° |
| 2026-05-07 02:09 | 58.17276 | -15.23588 | 35611 ft | 446 kts | 287° |
| 2026-05-07 02:10 | 58.19438 | -15.34610 | 35613 ft | 446 kts | 287° |
| 2026-05-07 02:10 | 58.21588 | -15.45633 | 35607 ft | 446 kts | 287° |
| 2026-05-07 02:11 | 58.23727 | -15.56663 | 35609 ft | 446 kts | 287° |
| 2026-05-07 02:11 | 58.25858 | -15.67720 | 35615 ft | 446 kts | 287° |
| 2026-05-07 02:12 | 58.27984 | -15.78811 | 35619 ft | 447 kts | 287° |
| 2026-05-07 02:12 | 58.30103 | -15.89925 | 35616 ft | 447 kts | 287° |
| 2026-05-07 02:13 | 58.32212 | -16.01052 | 35640 ft | 447 kts | 287° |
| 2026-05-07 02:13 | 58.34309 | -16.12178 | 35622 ft | 446 kts | 287° |
| 2026-05-07 02:14 | 58.36393 | -16.23302 | 35620 ft | 446 kts | 287° |
| 2026-05-07 02:14 | 58.38466 | -16.34433 | 35619 ft | 446 kts | 286° |
| 2026-05-07 02:15 | 58.40532 | -16.45592 | 35631 ft | 446 kts | 286° |
| 2026-05-07 02:15 | 58.42587 | -16.56753 | 35628 ft | 446 kts | 286° |
| 2026-05-07 02:16 | 58.44633 | -16.67930 | 35647 ft | 446 kts | 286° |
| 2026-05-07 02:16 | 58.46668 | -16.79119 | 35648 ft | 446 kts | 286° |
| 2026-05-07 02:17 | 58.48681 | -16.90250 | 35680 ft | 446 kts | 286° |
| 2026-05-07 02:17 | 58.50697 | -17.01464 | 35675 ft | 446 kts | 286° |
| 2026-05-07 02:18 | 58.52702 | -17.12686 | 35677 ft | 445 kts | 286° |
| 2026-05-07 02:18 | 58.54698 | -17.23924 | 35678 ft | 447 kts | 286° |
| 2026-05-07 02:19 | 58.56688 | -17.35190 | 35702 ft | 444 kts | 286° |
| 2026-05-07 02:19 | 58.58667 | -17.46375 | 35707 ft | 443 kts | 285° |
| 2026-05-07 02:20 | 58.60598 | -17.57518 | 35729 ft | 439 kts | 285° |
| 2026-05-07 02:20 | 58.62524 | -17.68669 | 35745 ft | 442 kts | 285° |
| 2026-05-07 02:21 | 58.64451 | -17.79899 | 35744 ft | 444 kts | 285° |
| 2026-05-07 02:21 | 58.66376 | -17.91183 | 35766 ft | 447 kts | 286° |
| 2026-05-07 02:22 | 58.68320 | -18.02494 | 35767 ft | 445 kts | 286° |
| 2026-05-07 02:22 | 58.70247 | -18.13784 | 35772 ft | 442 kts | 285° |
| 2026-05-07 02:23 | 58.72116 | -18.24952 | 35789 ft | 438 kts | 286° |
| 2026-05-07 02:23 | 58.73982 | -18.36162 | 35792 ft | 442 kts | 285° |
| 2026-05-07 02:24 | 58.75852 | -18.47396 | 35818 ft | 446 kts | 286° |
| 2026-05-07 02:24 | 58.77760 | -18.58877 | 35821 ft | 446 kts | 285° |
| 2026-05-07 02:25 | 58.79605 | -18.70160 | 35819 ft | 444 kts | 285° |
| 2026-05-07 02:25 | 58.81436 | -18.81492 | 35853 ft | 439 kts | 285° |
| 2026-05-07 02:26 | 58.83248 | -18.92778 | 35852 ft | 441 kts | 286° |
| 2026-05-07 02:26 | 58.85089 | -19.04121 | 35845 ft | 445 kts | 286° |
| 2026-05-07 02:27 | 58.86918 | -19.15591 | 35876 ft | 448 kts | 285° |
| 2026-05-07 02:27 | 58.88736 | -19.27033 | 35879 ft | 445 kts | 285° |
| 2026-05-07 02:28 | 58.90509 | -19.38401 | 35886 ft | 438 kts | 285° |
| 2026-05-07 02:28 | 58.92290 | -19.49719 | 35895 ft | 441 kts | 285° |
| 2026-05-07 02:29 | 58.94067 | -19.61124 | 35904 ft | 444 kts | 285° |
| 2026-05-07 02:29 | 58.95844 | -19.72634 | 35917 ft | 448 kts | 286° |
| 2026-05-07 02:30 | 58.97611 | -19.84181 | 35909 ft | 447 kts | 286° |
| 2026-05-07 02:30 | 58.99365 | -19.95663 | 35908 ft | 439 kts | 287° |
| 2026-05-07 02:31 | 59.01693 | -20.06555 | 35914 ft | 443 kts | 294° |
| 2026-05-07 02:31 | 59.04361 | -20.17393 | 35915 ft | 447 kts | 295° |
| 2026-05-07 02:32 | 59.07095 | -20.28294 | 35930 ft | 447 kts | 294° |
| 2026-05-07 02:32 | 59.09780 | -20.39072 | 35966 ft | 442 kts | 294° |
| 2026-05-07 02:33 | 59.12457 | -20.49877 | 35950 ft | 442 kts | 294° |
| 2026-05-07 02:33 | 59.15121 | -20.60721 | 35967 ft | 446 kts | 295° |
| 2026-05-07 02:34 | 59.17801 | -20.71693 | 35978 ft | 451 kts | 295° |
| 2026-05-07 02:34 | 59.20504 | -20.82800 | 35987 ft | 455 kts | 295° |
| 2026-05-07 02:35 | 59.23212 | -20.93985 | 35985 ft | 456 kts | 295° |
| 2026-05-07 02:35 | 59.25898 | -21.05150 | 35993 ft | 451 kts | 295° |
| 2026-05-07 02:36 | 59.28577 | -21.16298 | 36007 ft | 454 kts | 294° |
| 2026-05-07 02:36 | 59.31219 | -21.27353 | 36011 ft | 445 kts | 295° |
| 2026-05-07 02:37 | 59.33843 | -21.38316 | 36016 ft | 445 kts | 295° |
| 2026-05-07 02:37 | 59.36456 | -21.49390 | 36025 ft | 450 kts | 295° |
| 2026-05-07 02:38 | 59.39086 | -21.60551 | 36028 ft | 449 kts | 294° |
| 2026-05-07 02:38 | 59.41656 | -21.71643 | 36044 ft | 446 kts | 294° |
| 2026-05-07 02:39 | 59.43803 | -21.80866 | 36052 ft | 448 kts | 294° |
| 2026-05-07 02:39 | 59.46365 | -21.91984 | 36037 ft | 444 kts | 294° |
| 2026-05-07 02:40 | 59.48902 | -22.03034 | 36060 ft | 443 kts | 295° |
| 2026-05-07 02:40 | 59.51450 | -22.14130 | 36066 ft | 447 kts | 295° |
| 2026-05-07 02:41 | 59.54010 | -22.25355 | 36069 ft | 451 kts | 295° |
| 2026-05-07 02:41 | 59.56584 | -22.36649 | 36076 ft | 451 kts | 294° |
| 2026-05-07 02:42 | 59.59109 | -22.47923 | 36083 ft | 450 kts | 294° |
| 2026-05-07 02:42 | 59.61659 | -22.59261 | 36089 ft | 454 kts | 294° |
| 2026-05-07 02:43 | 59.64210 | -22.70732 | 36090 ft | 458 kts | 294° |
| 2026-05-07 02:43 | 59.66776 | -22.82323 | 36088 ft | 461 kts | 294° |
| 2026-05-07 02:44 | 59.69308 | -22.93874 | 36102 ft | 454 kts | 294° |
| 2026-05-07 02:44 | 59.71813 | -23.05294 | 36115 ft | 450 kts | 294° |
| 2026-05-07 02:45 | 59.74313 | -23.16698 | 36114 ft | 453 kts | 294° |
| 2026-05-07 02:45 | 59.76808 | -23.28141 | 36107 ft | 455 kts | 294° |
| 2026-05-07 02:46 | 59.79274 | -23.39584 | 36109 ft | 448 kts | 294° |
| 2026-05-07 02:46 | 59.81711 | -23.50955 | 36128 ft | 448 kts | 294° |
| 2026-05-07 02:47 | 59.84159 | -23.62425 | 36128 ft | 453 kts | 294° |
| 2026-05-07 02:47 | 59.86619 | -23.74012 | 36128 ft | 457 kts | 294° |
| 2026-05-07 02:48 | 59.89093 | -23.85701 | 36133 ft | 457 kts | 294° |
| 2026-05-07 02:48 | 59.91549 | -23.97354 | 36140 ft | 457 kts | 293° |
| 2026-05-07 02:49 | 59.93984 | -24.09062 | 36140 ft | 458 kts | 293° |
| 2026-05-07 02:49 | 59.96418 | -24.20825 | 36136 ft | 459 kts | 293° |
| 2026-05-07 02:50 | 59.98849 | -24.32616 | 36145 ft | 458 kts | 293° |
| 2026-05-07 02:50 | 60.01269 | -24.44375 | 36163 ft | 457 kts | 293° |
| 2026-05-07 02:51 | 60.03675 | -24.56194 | 36163 ft | 460 kts | 293° |
| 2026-05-07 02:51 | 60.06076 | -24.68041 | 36164 ft | 458 kts | 293° |
| 2026-05-07 02:52 | 60.08447 | -24.79809 | 36167 ft | 455 kts | 293° |
| 2026-05-07 02:52 | 60.10791 | -24.91519 | 36170 ft | 456 kts | 293° |
| 2026-05-07 02:53 | 60.13166 | -25.03444 | 36175 ft | 458 kts | 293° |
| 2026-05-07 02:53 | 60.15517 | -25.15318 | 36184 ft | 457 kts | 293° |
| 2026-05-07 02:54 | 60.17860 | -25.27221 | 36182 ft | 460 kts | 293° |
| 2026-05-07 02:54 | 60.20189 | -25.39119 | 36188 ft | 460 kts | 292° |
| 2026-05-07 02:55 | 60.22516 | -25.51088 | 36197 ft | 459 kts | 293° |
| 2026-05-07 02:55 | 60.24825 | -25.63035 | 36191 ft | 458 kts | 292° |
| 2026-05-07 02:56 | 60.27124 | -25.74996 | 36205 ft | 457 kts | 292° |
| 2026-05-07 02:56 | 60.29409 | -25.86961 | 36205 ft | 457 kts | 292° |
| 2026-05-07 02:57 | 60.31679 | -25.98924 | 36205 ft | 457 kts | 292° |
| 2026-05-07 02:57 | 60.33944 | -26.10926 | 36209 ft | 458 kts | 292° |
| 2026-05-07 02:58 | 60.36202 | -26.22968 | 36217 ft | 458 kts | 292° |
| 2026-05-07 02:58 | 60.38446 | -26.35011 | 36217 ft | 459 kts | 292° |
| 2026-05-07 02:59 | 60.40687 | -26.47115 | 36224 ft | 459 kts | 292° |
| 2026-05-07 02:59 | 60.42914 | -26.59220 | 36230 ft | 458 kts | 292° |
| 2026-05-07 03:00 | 60.45111 | -26.71236 | 36235 ft | 458 kts | 292° |
| 2026-05-07 03:00 | 60.47326 | -26.83427 | 36238 ft | 458 kts | 292° |
| 2026-05-07 03:01 | 60.49505 | -26.95495 | 36241 ft | 458 kts | 292° |
| 2026-05-07 03:01 | 60.51685 | -27.07645 | 36246 ft | 459 kts | 292° |
| 2026-05-07 03:02 | 60.53857 | -27.19829 | 36246 ft | 459 kts | 291° |
| 2026-05-07 03:02 | 60.56016 | -27.32022 | 36251 ft | 459 kts | 291° |
| 2026-05-07 03:03 | 60.58167 | -27.44248 | 36257 ft | 459 kts | 291° |
| 2026-05-07 03:03 | 60.60302 | -27.56461 | 36257 ft | 458 kts | 291° |
| 2026-05-07 03:04 | 60.62425 | -27.68687 | 36267 ft | 458 kts | 291° |
| 2026-05-07 03:04 | 60.64536 | -27.80926 | 36268 ft | 458 kts | 291° |
| 2026-05-07 03:05 | 60.66637 | -27.93181 | 36268 ft | 458 kts | 291° |
| 2026-05-07 03:05 | 60.68726 | -28.05454 | 36276 ft | 458 kts | 291° |
| 2026-05-07 03:06 | 60.70791 | -28.17662 | 36277 ft | 458 kts | 291° |
| 2026-05-07 03:06 | 60.72870 | -28.30041 | 36277 ft | 458 kts | 291° |
| 2026-05-07 03:07 | 60.74914 | -28.42287 | 36282 ft | 458 kts | 291° |
| 2026-05-07 03:07 | 60.76958 | -28.54626 | 36288 ft | 458 kts | 291° |
| 2026-05-07 03:08 | 60.78990 | -28.66969 | 36292 ft | 457 kts | 291° |
| 2026-05-07 03:08 | 60.81006 | -28.79302 | 36296 ft | 457 kts | 291° |
| 2026-05-07 03:09 | 60.83013 | -28.91662 | 36289 ft | 457 kts | 291° |
| 2026-05-07 03:09 | 60.85008 | -29.04038 | 36295 ft | 457 kts | 291° |
| 2026-05-07 03:10 | 60.86992 | -29.16427 | 36287 ft | 457 kts | 290° |
| 2026-05-07 03:10 | 60.88965 | -29.28839 | 36300 ft | 457 kts | 290° |
| 2026-05-07 03:11 | 60.90929 | -29.41276 | 36312 ft | 458 kts | 290° |
| 2026-05-07 03:11 | 60.92881 | -29.53728 | 36306 ft | 458 kts | 290° |
| 2026-05-07 03:12 | 60.94822 | -29.66202 | 36312 ft | 458 kts | 290° |
| 2026-05-07 03:12 | 60.96751 | -29.78681 | 36315 ft | 458 kts | 290° |
| 2026-05-07 03:13 | 60.98667 | -29.91172 | 36314 ft | 458 kts | 290° |
| 2026-05-07 03:13 | 61.00553 | -30.03698 | 36323 ft | 458 kts | 289° |
| 2026-05-07 03:14 | 61.02320 | -30.16241 | 36325 ft | 459 kts | 289° |
| 2026-05-07 03:15 | 61.04929 | -30.35239 | 36324 ft | 459 kts | 288° |
| 2026-05-07 03:15 | 61.06663 | -30.47912 | 36337 ft | 459 kts | 288° |
| 2026-05-07 03:16 | 61.08388 | -30.60579 | 36337 ft | 457 kts | 288° |
| 2026-05-07 03:16 | 61.10098 | -30.73232 | 36345 ft | 457 kts | 288° |
| 2026-05-07 03:17 | 61.11797 | -30.85897 | 36350 ft | 457 kts | 288° |
| 2026-05-07 03:17 | 61.13484 | -30.98579 | 36349 ft | 457 kts | 288° |
| 2026-05-07 03:18 | 61.15158 | -31.11277 | 36355 ft | 457 kts | 288° |
| 2026-05-07 03:18 | 61.16822 | -31.23995 | 36358 ft | 457 kts | 288° |
| 2026-05-07 03:19 | 61.18473 | -31.36715 | 36358 ft | 457 kts | 288° |
| 2026-05-07 03:19 | 61.20112 | -31.49454 | 36355 ft | 457 kts | 288° |
| 2026-05-07 03:20 | 61.21732 | -31.62154 | 36364 ft | 455 kts | 288° |
| 2026-05-07 03:20 | 61.23339 | -31.74858 | 36361 ft | 455 kts | 288° |
| 2026-05-07 03:21 | 61.24936 | -31.87575 | 36365 ft | 456 kts | 288° |
| 2026-05-07 03:21 | 61.26523 | -32.00331 | 36365 ft | 456 kts | 287° |
| 2026-05-07 03:22 | 61.28096 | -32.13090 | 36373 ft | 456 kts | 287° |
| 2026-05-07 03:22 | 61.29659 | -32.25872 | 36373 ft | 456 kts | 287° |
| 2026-05-07 03:23 | 61.31211 | -32.38669 | 36374 ft | 456 kts | 287° |
| 2026-05-07 03:23 | 61.32748 | -32.51463 | 36380 ft | 455 kts | 287° |
| 2026-05-07 03:24 | 61.34268 | -32.64228 | 36382 ft | 453 kts | 287° |
| 2026-05-07 03:24 | 61.35772 | -32.76972 | 36382 ft | 453 kts | 287° |
| 2026-05-07 03:25 | 61.37269 | -32.89755 | 36399 ft | 454 kts | 287° |
| 2026-05-07 03:25 | 61.38752 | -33.02548 | 36386 ft | 454 kts | 287° |
| 2026-05-07 03:26 | 61.40225 | -33.15362 | 36387 ft | 454 kts | 287° |
| 2026-05-07 03:26 | 61.41440 | -33.26027 | 36395 ft | 454 kts | 287° |
| 2026-05-07 03:27 | 61.43123 | -33.40935 | 36392 ft | 454 kts | 286° |
| 2026-05-07 03:27 | 61.44557 | -33.53767 | 36390 ft | 453 kts | 286° |
| 2026-05-07 03:28 | 61.45973 | -33.66559 | 36401 ft | 452 kts | 286° |
| 2026-05-07 03:28 | 61.47151 | -33.77289 | 36399 ft | 452 kts | 286° |
| 2026-05-07 03:29 | 61.48548 | -33.90119 | 36396 ft | 452 kts | 286° |
| 2026-05-07 03:29 | 61.49932 | -34.02958 | 36406 ft | 452 kts | 286° |
| 2026-05-07 03:30 | 61.51304 | -34.15807 | 36405 ft | 452 kts | 286° |
| 2026-05-07 03:30 | 61.52664 | -34.28672 | 36406 ft | 452 kts | 285° |
| 2026-05-07 03:31 | 61.54012 | -34.41549 | 36412 ft | 452 kts | 285° |
| 2026-05-07 03:31 | 61.55347 | -34.54430 | 36401 ft | 451 kts | 285° |
| 2026-05-07 03:32 | 61.56665 | -34.67280 | 36409 ft | 450 kts | 285° |
| 2026-05-07 03:32 | 61.57971 | -34.80126 | 36410 ft | 450 kts | 285° |
| 2026-05-07 03:33 | 61.59256 | -34.92901 | 36410 ft | 450 kts | 285° |
| 2026-05-07 03:33 | 61.60539 | -35.05780 | 36413 ft | 450 kts | 285° |
| 2026-05-07 03:34 | 61.61808 | -35.18663 | 36417 ft | 450 kts | 285° |
| 2026-05-07 03:34 | 61.63066 | -35.31563 | 36419 ft | 450 kts | 285° |
| 2026-05-07 03:35 | 61.64312 | -35.44474 | 36418 ft | 451 kts | 285° |
| 2026-05-07 03:35 | 61.65547 | -35.57410 | 36412 ft | 451 kts | 285° |
| 2026-05-07 03:36 | 61.66765 | -35.70312 | 36414 ft | 449 kts | 284° |
| 2026-05-07 03:36 | 61.67970 | -35.83201 | 36414 ft | 449 kts | 284° |
| 2026-05-07 03:37 | 61.69163 | -35.96103 | 36423 ft | 449 kts | 284° |
| 2026-05-07 03:37 | 61.70344 | -36.09017 | 36417 ft | 449 kts | 284° |
| 2026-05-07 03:38 | 61.71512 | -36.21932 | 36414 ft | 449 kts | 284° |
| 2026-05-07 03:38 | 61.72668 | -36.34869 | 36407 ft | 449 kts | 284° |
| 2026-05-07 03:39 | 61.73814 | -36.47829 | 36421 ft | 450 kts | 284° |
| 2026-05-07 03:39 | 61.74949 | -36.60813 | 36409 ft | 449 kts | 284° |
| 2026-05-07 03:40 | 61.76061 | -36.73711 | 36419 ft | 445 kts | 284° |
| 2026-05-07 03:40 | 61.77152 | -36.86478 | 36416 ft | 445 kts | 284° |
| 2026-05-07 03:41 | 61.78238 | -36.99342 | 36417 ft | 445 kts | 284° |
| 2026-05-07 03:41 | 61.79313 | -37.12220 | 36420 ft | 445 kts | 284° |
| 2026-05-07 03:42 | 61.80375 | -37.25113 | 36416 ft | 445 kts | 284° |
| 2026-05-07 03:42 | 61.81426 | -37.38018 | 36418 ft | 447 kts | 283° |
| 2026-05-07 03:43 | 61.82470 | -37.50996 | 36418 ft | 448 kts | 283° |
| 2026-05-07 03:43 | 61.83502 | -37.63989 | 36417 ft | 447 kts | 283° |
| 2026-05-07 03:44 | 61.84515 | -37.76922 | 36419 ft | 443 kts | 283° |
| 2026-05-07 03:44 | 61.85512 | -37.89799 | 36419 ft | 443 kts | 283° |
| 2026-05-07 03:45 | 61.86498 | -38.02684 | 36421 ft | 443 kts | 283° |
| 2026-05-07 03:45 | 61.87466 | -38.15502 | 36421 ft | 443 kts | 283° |
| 2026-05-07 03:46 | 61.88427 | -38.28403 | 36418 ft | 444 kts | 283° |
| 2026-05-07 03:46 | 61.89379 | -38.41356 | 36425 ft | 445 kts | 283° |
| 2026-05-07 03:47 | 61.90320 | -38.54332 | 36424 ft | 445 kts | 283° |
| 2026-05-07 03:47 | 61.91249 | -38.67315 | 36396 ft | 445 kts | 283° |
| 2026-05-07 03:48 | 61.92163 | -38.80279 | 36424 ft | 444 kts | 283° |
| 2026-05-07 03:48 | 61.93064 | -38.93228 | 36425 ft | 443 kts | 283° |
| 2026-05-07 03:49 | 61.93952 | -39.06171 | 36423 ft | 443 kts | 283° |
| 2026-05-07 03:49 | 61.94828 | -39.19122 | 36416 ft | 443 kts | 283° |
| 2026-05-07 03:50 | 61.95693 | -39.32096 | 36425 ft | 444 kts | 282° |
| 2026-05-07 03:50 | 61.96546 | -39.45091 | 36425 ft | 444 kts | 282° |
| 2026-05-07 03:51 | 61.97387 | -39.58089 | 36419 ft | 444 kts | 282° |
| 2026-05-07 03:51 | 61.98216 | -39.71102 | 36419 ft | 444 kts | 282° |
| 2026-05-07 03:52 | 61.99034 | -39.84133 | 36423 ft | 444 kts | 282° |
| 2026-05-07 03:52 | 61.99862 | -39.97060 | 36413 ft | 442 kts | 285° |
| 2026-05-07 03:53 | 62.01360 | -40.09678 | 36415 ft | 439 kts | 290° |
| 2026-05-07 03:53 | 62.03063 | -40.22158 | 36414 ft | 439 kts | 290° |
| 2026-05-07 03:54 | 62.04800 | -40.34629 | 36414 ft | 439 kts | 290° |
| 2026-05-07 03:54 | 62.06521 | -40.47114 | 36417 ft | 439 kts | 290° |
| 2026-05-07 03:55 | 62.08221 | -40.59618 | 36414 ft | 439 kts | 290° |
| 2026-05-07 03:55 | 62.09908 | -40.72147 | 36414 ft | 439 kts | 290° |
| 2026-05-07 03:56 | 62.11581 | -40.84682 | 36417 ft | 439 kts | 290° |
| 2026-05-07 03:56 | 62.13244 | -40.97236 | 36369 ft | 439 kts | 289° |
| 2026-05-07 03:57 | 62.14888 | -41.09746 | 36420 ft | 435 kts | 289° |
| 2026-05-07 03:57 | 62.16511 | -41.22196 | 36404 ft | 434 kts | 289° |
| 2026-05-07 03:58 | 62.18123 | -41.34647 | 36423 ft | 434 kts | 289° |
| 2026-05-07 03:58 | 62.19723 | -41.47114 | 36408 ft | 434 kts | 289° |
| 2026-05-07 03:59 | 62.21313 | -41.59596 | 36422 ft | 434 kts | 289° |
| 2026-05-07 03:59 | 62.22892 | -41.72097 | 36401 ft | 435 kts | 289° |
| 2026-05-07 04:00 | 62.24467 | -41.84665 | 36412 ft | 438 kts | 289° |
| 2026-05-07 04:00 | 62.26034 | -41.97285 | 36418 ft | 438 kts | 288° |
| 2026-05-07 04:01 | 62.27580 | -42.09841 | 36413 ft | 438 kts | 288° |
| 2026-05-07 04:01 | 62.29127 | -42.22499 | 36411 ft | 438 kts | 288° |
| 2026-05-07 04:02 | 62.30661 | -42.35163 | 36396 ft | 438 kts | 287° |
| 2026-05-07 04:02 | 62.32187 | -42.47873 | 36412 ft | 439 kts | 287° |
| 2026-05-07 04:03 | 62.33703 | -42.60612 | 36408 ft | 442 kts | 287° |
| 2026-05-07 04:03 | 62.35224 | -42.73489 | 36410 ft | 445 kts | 287° |
| 2026-05-07 04:04 | 62.36736 | -42.86422 | 36405 ft | 445 kts | 287° |
| 2026-05-07 04:04 | 62.38236 | -42.99367 | 36407 ft | 445 kts | 287° |
| 2026-05-07 04:05 | 62.39715 | -43.12227 | 36399 ft | 445 kts | 287° |
| 2026-05-07 04:05 | 62.41190 | -43.25193 | 36384 ft | 445 kts | 287° |
| 2026-05-07 04:06 | 62.42656 | -43.38163 | 36378 ft | 446 kts | 286° |
| 2026-05-07 04:06 | 62.44128 | -43.51251 | 36372 ft | 451 kts | 286° |
| 2026-05-07 04:07 | 62.45584 | -43.64469 | 36372 ft | 452 kts | 286° |
| 2026-05-07 04:07 | 62.47032 | -43.77711 | 36328 ft | 454 kts | 285° |
| 2026-05-07 04:08 | 62.48479 | -43.91040 | 36295 ft | 456 kts | 285° |
| 2026-05-07 04:08 | 62.49913 | -44.04382 | 36293 ft | 456 kts | 285° |
| 2026-05-07 04:09 | 62.51336 | -44.17741 | 36252 ft | 456 kts | 284° |
| 2026-05-07 04:09 | 62.52760 | -44.31195 | 36237 ft | 461 kts | 284° |
| 2026-05-07 04:10 | 62.54178 | -44.44785 | 36232 ft | 463 kts | 284° |
| 2026-05-07 04:10 | 62.55580 | -44.58391 | 36216 ft | 463 kts | 284° |
| 2026-05-07 04:11 | 62.56970 | -44.72008 | 36214 ft | 462 kts | 284° |
| 2026-05-07 04:11 | 62.58349 | -44.85644 | 36200 ft | 463 kts | 284° |
| 2026-05-07 04:12 | 62.59714 | -44.99278 | 36194 ft | 463 kts | 284° |
| 2026-05-07 04:12 | 62.61076 | -45.12993 | 36198 ft | 467 kts | 283° |
| 2026-05-07 04:13 | 62.62426 | -45.26778 | 36191 ft | 473 kts | 283° |
| 2026-05-07 04:13 | 62.63784 | -45.40809 | 36197 ft | 475 kts | 283° |
| 2026-05-07 04:14 | 62.65128 | -45.54858 | 36197 ft | 474 kts | 282° |
| 2026-05-07 04:14 | 62.66458 | -45.68905 | 36197 ft | 474 kts | 282° |
| 2026-05-07 04:15 | 62.67776 | -45.82980 | 36209 ft | 474 kts | 282° |
| 2026-05-07 04:15 | 62.68859 | -45.94702 | 36227 ft | 477 kts | 282° |
| 2026-05-07 04:16 | 62.70167 | -46.08913 | 36227 ft | 480 kts | 282° |
| 2026-05-07 04:16 | 62.71456 | -46.23167 | 36230 ft | 479 kts | 282° |
| 2026-05-07 04:17 | 62.72730 | -46.37433 | 36233 ft | 479 kts | 282° |
| 2026-05-07 04:17 | 62.74001 | -46.51718 | 36250 ft | 482 kts | 281° |
| 2026-05-07 04:18 | 62.75264 | -46.66123 | 36249 ft | 484 kts | 280° |
| 2026-05-07 04:18 | 62.76502 | -46.80601 | 36250 ft | 487 kts | 280° |
| 2026-05-07 04:19 | 62.77737 | -46.95183 | 36250 ft | 489 kts | 280° |
| 2026-05-07 04:19 | 62.78961 | -47.09781 | 36253 ft | 489 kts | 280° |
| 2026-05-07 04:20 | 62.80173 | -47.24404 | 36249 ft | 489 kts | 279° |
| 2026-05-07 04:20 | 62.81360 | -47.38928 | 36244 ft | 489 kts | 279° |
| 2026-05-07 04:21 | 62.83126 | -47.60899 | 36238 ft | 490 kts | 279° |
| 2026-05-07 04:21 | 62.84291 | -47.75653 | 36241 ft | 493 kts | 279° |
| 2026-05-07 04:22 | 62.85451 | -47.90474 | 36230 ft | 495 kts | 278° |
| 2026-05-07 04:22 | 62.86583 | -48.05371 | 36225 ft | 496 kts | 278° |
| 2026-05-07 04:23 | 62.87711 | -48.20285 | 36222 ft | 496 kts | 277° |
| 2026-05-07 04:23 | 62.88828 | -48.35216 | 36217 ft | 496 kts | 277° |
| 2026-05-07 04:24 | 62.89927 | -48.50163 | 36216 ft | 496 kts | 277° |
| 2026-05-07 04:24 | 62.91009 | -48.65123 | 36213 ft | 496 kts | 277° |
| 2026-05-07 04:25 | 62.92074 | -48.80080 | 36213 ft | 496 kts | 277° |
| 2026-05-07 04:25 | 62.93123 | -48.95061 | 36213 ft | 496 kts | 277° |
| 2026-05-07 04:26 | 62.94157 | -49.10040 | 36214 ft | 496 kts | 277° |
| 2026-05-07 04:26 | 62.95174 | -49.25030 | 36200 ft | 496 kts | 276° |
| 2026-05-07 04:27 | 62.96179 | -49.40091 | 36191 ft | 500 kts | 276° |
| 2026-05-07 04:27 | 62.97175 | -49.55265 | 36195 ft | 502 kts | 276° |
| 2026-05-07 04:28 | 62.98157 | -49.70469 | 36188 ft | 502 kts | 276° |
| 2026-05-07 04:28 | 62.99113 | -49.85552 | 36196 ft | 501 kts | 276° |
| 2026-05-07 04:29 | 62.99595 | -50.00778 | 36187 ft | 496 kts | 262° |
| 2026-05-07 04:29 | 62.98535 | -50.15692 | 36209 ft | 493 kts | 255° |
| 2026-05-07 04:30 | 62.97097 | -50.30448 | 36197 ft | 495 kts | 253° |
| 2026-05-07 04:30 | 62.95573 | -50.45242 | 36214 ft | 496 kts | 253° |
| 2026-05-07 04:31 | 62.94060 | -50.59983 | 36185 ft | 494 kts | 253° |
| 2026-05-07 04:31 | 62.92554 | -50.74693 | 36189 ft | 493 kts | 253° |
| 2026-05-07 04:32 | 62.91040 | -50.89366 | 36184 ft | 493 kts | 253° |
| 2026-05-07 04:32 | 62.89509 | -51.04043 | 36174 ft | 493 kts | 253° |
| 2026-05-07 04:33 | 62.87963 | -51.18699 | 36177 ft | 493 kts | 253° |
| 2026-05-07 04:33 | 62.86411 | -51.33241 | 36205 ft | 493 kts | 253° |
| 2026-05-07 04:34 | 62.84843 | -51.47702 | 36158 ft | 483 kts | 251° |
| 2026-05-07 04:34 | 62.83277 | -51.62060 | 36160 ft | 482 kts | 252° |
| 2026-05-07 04:35 | 62.81717 | -51.76234 | 36160 ft | 482 kts | 251° |
| 2026-05-07 04:35 | 62.80152 | -51.90487 | 36158 ft | 482 kts | 251° |
| 2026-05-07 04:36 | 62.78562 | -52.04723 | 36143 ft | 482 kts | 251° |
| 2026-05-07 04:36 | 62.76954 | -52.18934 | 36144 ft | 481 kts | 251° |
| 2026-05-07 04:37 | 62.75311 | -52.33096 | 36144 ft | 481 kts | 251° |
| 2026-05-07 04:37 | 62.73672 | -52.47259 | 36122 ft | 481 kts | 251° |
| 2026-05-07 04:38 | 62.72017 | -52.61389 | 36129 ft | 482 kts | 251° |
| 2026-05-07 04:38 | 62.70349 | -52.75624 | 36106 ft | 488 kts | 250° |
| 2026-05-07 04:39 | 62.68637 | -52.90013 | 36097 ft | 493 kts | 251° |
| 2026-05-07 04:39 | 62.66882 | -53.04436 | 36098 ft | 492 kts | 250° |
| 2026-05-07 04:40 | 62.65125 | -53.18810 | 36073 ft | 488 kts | 251° |
| 2026-05-07 04:40 | 62.63414 | -53.32864 | 36064 ft | 482 kts | 250° |
| 2026-05-07 04:41 | 62.61695 | -53.46936 | 36049 ft | 482 kts | 249° |
| 2026-05-07 04:41 | 62.59942 | -53.60984 | 36048 ft | 482 kts | 249° |
| 2026-05-07 04:42 | 62.58167 | -53.74998 | 36048 ft | 482 kts | 249° |
| 2026-05-07 04:42 | 62.56372 | -53.89034 | 36016 ft | 485 kts | 250° |
| 2026-05-07 04:43 | 62.54546 | -54.03179 | 36024 ft | 487 kts | 249° |
| 2026-05-07 04:43 | 62.52719 | -54.17244 | 35992 ft | 483 kts | 250° |
| 2026-05-07 04:44 | 62.50896 | -54.31234 | 35984 ft | 482 kts | 249° |
| 2026-05-07 04:44 | 62.49054 | -54.45190 | 35985 ft | 482 kts | 249° |
| 2026-05-07 04:45 | 62.47194 | -54.59118 | 35969 ft | 482 kts | 249° |
| 2026-05-07 04:45 | 62.45329 | -54.73044 | 35954 ft | 482 kts | 250° |
| 2026-05-07 04:46 | 62.43460 | -54.86950 | 35959 ft | 482 kts | 249° |
| 2026-05-07 04:46 | 62.41562 | -55.00767 | 35945 ft | 480 kts | 249° |
| 2026-05-07 04:47 | 62.39668 | -55.14511 | 35939 ft | 482 kts | 248° |
| 2026-05-07 04:47 | 62.37743 | -55.28367 | 35917 ft | 483 kts | 249° |
| 2026-05-07 04:48 | 62.35803 | -55.42216 | 35911 ft | 483 kts | 248° |
| 2026-05-07 04:48 | 62.33851 | -55.56040 | 35897 ft | 482 kts | 249° |
| 2026-05-07 04:49 | 62.31886 | -55.69840 | 35915 ft | 482 kts | 249° |
| 2026-05-07 04:49 | 62.29910 | -55.83604 | 35883 ft | 481 kts | 248° |
| 2026-05-07 04:50 | 62.27925 | -55.97322 | 35869 ft | 481 kts | 248° |
| 2026-05-07 04:50 | 62.25925 | -56.11018 | 35882 ft | 480 kts | 248° |
| 2026-05-07 04:51 | 62.23908 | -56.24724 | 35846 ft | 484 kts | 248° |
| 2026-05-07 04:51 | 62.21865 | -56.38493 | 35843 ft | 485 kts | 248° |
| 2026-05-07 04:52 | 62.19809 | -56.52252 | 35843 ft | 485 kts | 248° |
| 2026-05-07 04:52 | 62.17742 | -56.65979 | 35823 ft | 483 kts | 248° |
| 2026-05-07 04:53 | 62.15668 | -56.79633 | 35823 ft | 482 kts | 248° |
| 2026-05-07 04:53 | 62.13582 | -56.93259 | 35813 ft | 482 kts | 248° |
| 2026-05-07 04:54 | 62.11483 | -57.06858 | 35807 ft | 482 kts | 248° |
| 2026-05-07 04:54 | 62.09370 | -57.20449 | 35807 ft | 482 kts | 248° |
| 2026-05-07 04:55 | 62.07245 | -57.34013 | 35799 ft | 483 kts | 248° |
| 2026-05-07 04:55 | 62.05095 | -57.47625 | 35787 ft | 484 kts | 248° |
| 2026-05-07 04:56 | 62.02949 | -57.61123 | 35779 ft | 483 kts | 248° |
| 2026-05-07 04:56 | 62.00779 | -57.74666 | 35779 ft | 483 kts | 248° |
| 2026-05-07 04:57 | 61.98774 | -57.88321 | 35778 ft | 486 kts | 255° |
| 2026-05-07 04:57 | 61.98455 | -58.02750 | 35774 ft | 494 kts | 275° |
| 2026-05-07 04:58 | 61.99202 | -58.09908 | 35774 ft | 499 kts | 286° |
| 2026-05-07 04:58 | 62.00493 | -58.16790 | 35771 ft | 502 kts | 291° |
| 2026-05-07 04:58 | 62.03506 | -58.30245 | 35775 ft | 505 kts | 294° |
| 2026-05-07 04:59 | 62.06660 | -58.43661 | 35760 ft | 507 kts | 294° |
| 2026-05-07 04:59 | 62.09779 | -58.57149 | 35753 ft | 506 kts | 294° |
| 2026-05-07 05:00 | 62.12847 | -58.70688 | 35765 ft | 506 kts | 293° |
| 2026-05-07 05:00 | 62.15889 | -58.84276 | 35762 ft | 507 kts | 293° |
| 2026-05-07 05:01 | 62.18916 | -58.97887 | 35736 ft | 506 kts | 293° |
| 2026-05-07 05:01 | 62.21910 | -59.11427 | 35751 ft | 506 kts | 293° |
| 2026-05-07 05:02 | 62.24912 | -59.25084 | 35736 ft | 506 kts | 293° |
| 2026-05-07 05:02 | 62.27902 | -59.38775 | 35747 ft | 506 kts | 292° |
| 2026-05-07 05:03 | 62.30875 | -59.52481 | 35737 ft | 506 kts | 293° |
| 2026-05-07 05:03 | 62.33341 | -59.63913 | 35733 ft | 507 kts | 292° |
| 2026-05-07 05:04 | 62.36297 | -59.77704 | 35724 ft | 507 kts | 292° |
| 2026-05-07 05:04 | 62.39243 | -59.91534 | 35724 ft | 507 kts | 292° |
| 2026-05-07 05:05 | 62.42171 | -60.05376 | 35716 ft | 507 kts | 292° |
| 2026-05-07 05:05 | 62.45092 | -60.19268 | 35719 ft | 508 kts | 292° |
| 2026-05-07 05:06 | 62.47997 | -60.33201 | 35711 ft | 509 kts | 292° |
| 2026-05-07 05:06 | 62.50897 | -60.47184 | 35711 ft | 509 kts | 292° |
| 2026-05-07 05:07 | 62.53784 | -60.61194 | 35702 ft | 509 kts | 292° |
| 2026-05-07 05:07 | 62.56653 | -60.75217 | 35702 ft | 509 kts | 292° |
| 2026-05-07 05:08 | 62.59513 | -60.89296 | 35695 ft | 510 kts | 292° |
| 2026-05-07 05:08 | 62.62361 | -61.03415 | 35695 ft | 511 kts | 292° |
| 2026-05-07 05:09 | 62.65196 | -61.17564 | 35684 ft | 511 kts | 292° |
| 2026-05-07 05:09 | 62.68000 | -61.31654 | 35673 ft | 511 kts | 291° |
| 2026-05-07 05:10 | 62.70806 | -61.45857 | 35686 ft | 511 kts | 291° |
| 2026-05-07 05:10 | 62.73599 | -61.60091 | 35664 ft | 512 kts | 291° |
| 2026-05-07 05:11 | 62.76383 | -61.74376 | 35659 ft | 511 kts | 291° |
| 2026-05-07 05:11 | 62.79146 | -61.88661 | 35644 ft | 510 kts | 291° |
| 2026-05-07 05:12 | 62.81891 | -62.02949 | 35644 ft | 510 kts | 291° |
| 2026-05-07 05:12 | 62.84623 | -62.17281 | 35622 ft | 510 kts | 291° |
| 2026-05-07 05:13 | 62.87342 | -62.31640 | 35628 ft | 511 kts | 291° |
| 2026-05-07 05:13 | 62.90049 | -62.46042 | 35614 ft | 511 kts | 291° |
| 2026-05-07 05:14 | 62.92741 | -62.60469 | 35628 ft | 511 kts | 291° |
| 2026-05-07 05:14 | 62.95418 | -62.74916 | 35598 ft | 511 kts | 290° |
| 2026-05-07 05:15 | 62.98079 | -62.89390 | 35603 ft | 511 kts | 290° |
| 2026-05-07 05:15 | 63.00691 | -63.03950 | 35598 ft | 512 kts | 289° |
| 2026-05-07 05:16 | 63.03050 | -63.18723 | 35601 ft | 511 kts | 287° |
| 2026-05-07 05:16 | 63.05322 | -63.33564 | 35587 ft | 511 kts | 287° |
| 2026-05-07 05:17 | 63.07595 | -63.48407 | 35587 ft | 511 kts | 287° |
| 2026-05-07 05:17 | 63.09875 | -63.63284 | 35593 ft | 511 kts | 287° |
| 2026-05-07 05:18 | 63.12145 | -63.78170 | 35583 ft | 512 kts | 287° |
| 2026-05-07 05:18 | 63.14403 | -63.93099 | 35583 ft | 512 kts | 287° |
| 2026-05-07 05:19 | 63.16643 | -64.08040 | 35594 ft | 512 kts | 287° |
| 2026-05-07 05:19 | 63.18852 | -64.22909 | 35594 ft | 512 kts | 287° |
| 2026-05-07 05:20 | 63.21063 | -64.37919 | 35600 ft | 513 kts | 287° |
| 2026-05-07 05:20 | 63.23263 | -64.52980 | 35598 ft | 513 kts | 287° |
| 2026-05-07 05:21 | 63.26533 | -64.75623 | 35602 ft | 513 kts | 287° |
| 2026-05-07 05:22 | 63.28692 | -64.90737 | 35606 ft | 513 kts | 286° |
| 2026-05-07 05:22 | 63.30838 | -65.05896 | 35606 ft | 514 kts | 286° |
| 2026-05-07 05:23 | 63.32969 | -65.21082 | 35595 ft | 514 kts | 286° |
| 2026-05-07 05:23 | 63.35085 | -65.36302 | 35595 ft | 514 kts | 286° |
| 2026-05-07 05:24 | 63.37184 | -65.51542 | 35598 ft | 514 kts | 286° |
| 2026-05-07 05:24 | 63.39266 | -65.66798 | 35597 ft | 514 kts | 286° |
| 2026-05-07 05:25 | 63.41331 | -65.82070 | 35605 ft | 514 kts | 285° |
| 2026-05-07 05:25 | 63.43368 | -65.97272 | 35603 ft | 514 kts | 285° |
| 2026-05-07 05:26 | 63.45414 | -66.12687 | 35604 ft | 514 kts | 285° |
| 2026-05-07 05:26 | 63.47418 | -66.27933 | 35602 ft | 514 kts | 285° |
| 2026-05-07 05:27 | 63.49418 | -66.43293 | 35610 ft | 514 kts | 285° |
| 2026-05-07 05:27 | 63.51404 | -66.58695 | 35609 ft | 515 kts | 285° |
| 2026-05-07 05:28 | 63.53376 | -66.74140 | 35611 ft | 515 kts | 285° |
| 2026-05-07 05:28 | 63.55330 | -66.89595 | 35611 ft | 515 kts | 285° |
| 2026-05-07 05:29 | 63.57268 | -67.05069 | 35618 ft | 515 kts | 284° |
| 2026-05-07 05:29 | 63.59188 | -67.20564 | 35617 ft | 515 kts | 284° |
| 2026-05-07 05:30 | 63.61096 | -67.36110 | 35623 ft | 516 kts | 284° |
| 2026-05-07 05:30 | 63.62985 | -67.51658 | 35626 ft | 516 kts | 284° |
| 2026-05-07 05:31 | 63.64859 | -67.67246 | 35635 ft | 516 kts | 284° |
| 2026-05-07 05:31 | 63.66715 | -67.82852 | 35633 ft | 516 kts | 284° |
| 2026-05-07 05:32 | 63.68544 | -67.98383 | 35640 ft | 516 kts | 284° |
| 2026-05-07 05:32 | 63.70368 | -68.14044 | 35647 ft | 517 kts | 284° |
| 2026-05-07 05:33 | 63.72176 | -68.29727 | 35645 ft | 517 kts | 284° |
| 2026-05-07 05:33 | 63.73765 | -68.45510 | 35645 ft | 515 kts | 275° |
| 2026-05-07 05:34 | 63.73872 | -68.61629 | 35654 ft | 513 kts | 266° |
| 2026-05-07 05:34 | 63.73517 | -68.77720 | 35655 ft | 514 kts | 265° |
| 2026-05-07 05:35 | 63.73061 | -68.93824 | 35646 ft | 514 kts | 264° |
| 2026-05-07 05:35 | 63.72600 | -69.09936 | 35649 ft | 513 kts | 264° |
| 2026-05-07 05:36 | 63.72143 | -69.26010 | 35641 ft | 513 kts | 264° |
| 2026-05-07 05:36 | 63.71679 | -69.41973 | 35639 ft | 513 kts | 264° |
| 2026-05-07 05:37 | 63.71195 | -69.58042 | 35625 ft | 514 kts | 264° |
| 2026-05-07 05:37 | 63.70690 | -69.74154 | 35630 ft | 515 kts | 264° |
| 2026-05-07 05:38 | 63.70166 | -69.90257 | 35614 ft | 514 kts | 264° |
| 2026-05-07 05:38 | 63.69626 | -70.06344 | 35611 ft | 514 kts | 264° |
| 2026-05-07 05:39 | 63.69067 | -70.22423 | 35601 ft | 514 kts | 264° |
| 2026-05-07 05:39 | 63.68490 | -70.38495 | 35600 ft | 514 kts | 263° |
| 2026-05-07 05:40 | 63.67895 | -70.54553 | 35597 ft | 515 kts | 263° |
| 2026-05-07 05:40 | 63.67283 | -70.70615 | 35590 ft | 514 kts | 263° |
| 2026-05-07 05:41 | 63.66655 | -70.86603 | 35578 ft | 512 kts | 263° |
| 2026-05-07 05:41 | 63.66010 | -71.02562 | 35580 ft | 512 kts | 263° |
| 2026-05-07 05:42 | 63.65352 | -71.18413 | 35586 ft | 512 kts | 263° |
| 2026-05-07 05:42 | 63.64672 | -71.34360 | 35583 ft | 512 kts | 263° |
| 2026-05-07 05:43 | 63.63973 | -71.50318 | 35576 ft | 512 kts | 263° |
| 2026-05-07 05:43 | 63.63257 | -71.66259 | 35575 ft | 512 kts | 262° |
| 2026-05-07 05:44 | 63.62524 | -71.82200 | 35576 ft | 512 kts | 262° |
| 2026-05-07 05:44 | 63.61772 | -71.98128 | 35571 ft | 512 kts | 262° |
| 2026-05-07 05:45 | 63.61003 | -72.14051 | 35569 ft | 512 kts | 262° |
| 2026-05-07 05:45 | 63.60216 | -72.29970 | 35570 ft | 513 kts | 262° |
| 2026-05-07 05:46 | 63.59410 | -72.45894 | 35569 ft | 513 kts | 262° |
| 2026-05-07 05:46 | 63.58588 | -72.61809 | 35567 ft | 513 kts | 262° |
| 2026-05-07 05:47 | 63.57748 | -72.77711 | 35560 ft | 513 kts | 261° |
| 2026-05-07 05:47 | 63.56891 | -72.93596 | 35563 ft | 513 kts | 261° |
| 2026-05-07 05:48 | 63.56014 | -73.09495 | 35560 ft | 514 kts | 261° |
| 2026-05-07 05:48 | 63.55126 | -73.25282 | 35558 ft | 514 kts | 261° |
| 2026-05-07 05:49 | 63.54215 | -73.41168 | 35556 ft | 513 kts | 261° |
| 2026-05-07 05:49 | 63.53286 | -73.57039 | 35551 ft | 513 kts | 261° |
| 2026-05-07 05:50 | 63.52339 | -73.72893 | 35545 ft | 513 kts | 261° |
| 2026-05-07 05:50 | 63.51376 | -73.88732 | 35541 ft | 513 kts | 261° |
| 2026-05-07 05:51 | 63.50394 | -74.04578 | 35544 ft | 513 kts | 260° |
| 2026-05-07 05:51 | 63.49395 | -74.20409 | 35548 ft | 513 kts | 260° |
| 2026-05-07 05:52 | 63.48379 | -74.36225 | 35540 ft | 513 kts | 260° |
| 2026-05-07 05:52 | 63.47516 | -74.49436 | 35540 ft | 512 kts | 260° |
| 2026-05-07 05:53 | 63.46478 | -74.65073 | 35533 ft | 512 kts | 260° |
| 2026-05-07 05:53 | 63.45414 | -74.80830 | 35532 ft | 512 kts | 260° |
| 2026-05-07 05:54 | 63.44326 | -74.96677 | 35524 ft | 512 kts | 259° |
| 2026-05-07 05:54 | 63.43236 | -75.12284 | 35524 ft | 512 kts | 259° |
| 2026-05-07 05:55 | 63.42121 | -75.28008 | 35515 ft | 512 kts | 259° |
| 2026-05-07 05:55 | 63.40988 | -75.43708 | 35513 ft | 512 kts | 259° |
| 2026-05-07 05:56 | 63.39838 | -75.59403 | 35509 ft | 512 kts | 259° |
| 2026-05-07 05:56 | 63.38670 | -75.75104 | 35498 ft | 512 kts | 259° |
| 2026-05-07 05:57 | 63.37486 | -75.90769 | 35500 ft | 512 kts | 259° |
| 2026-05-07 05:57 | 63.36285 | -76.06418 | 35516 ft | 512 kts | 259° |
| 2026-05-07 05:58 | 63.35067 | -76.22049 | 35497 ft | 511 kts | 259° |
| 2026-05-07 05:58 | 63.33835 | -76.37640 | 35498 ft | 511 kts | 258° |
| 2026-05-07 05:59 | 63.32585 | -76.53218 | 35484 ft | 511 kts | 258° |
| 2026-05-07 05:59 | 63.31318 | -76.68783 | 35484 ft | 511 kts | 258° |
| 2026-05-07 06:00 | 63.30041 | -76.84255 | 35478 ft | 511 kts | 258° |
| 2026-05-07 06:00 | 63.28732 | -76.99895 | 35482 ft | 511 kts | 258° |
| 2026-05-07 06:01 | 63.27413 | -77.15430 | 35465 ft | 513 kts | 258° |
| 2026-05-07 06:01 | 63.26074 | -77.30994 | 35462 ft | 513 kts | 258° |
| 2026-05-07 06:02 | 63.24718 | -77.46545 | 35464 ft | 513 kts | 257° |
| 2026-05-07 06:02 | 63.23347 | -77.62065 | 35458 ft | 513 kts | 257° |
| 2026-05-07 06:03 | 63.21967 | -77.77471 | 35455 ft | 513 kts | 257° |
| 2026-05-07 06:03 | 63.20560 | -77.92969 | 35444 ft | 512 kts | 257° |
| 2026-05-07 06:04 | 63.19141 | -78.08417 | 35443 ft | 512 kts | 257° |
| 2026-05-07 06:04 | 63.17704 | -78.23852 | 35444 ft | 512 kts | 257° |
| 2026-05-07 06:05 | 63.16251 | -78.39269 | 35440 ft | 512 kts | 257° |
| 2026-05-07 06:05 | 63.14781 | -78.54670 | 35423 ft | 512 kts | 257° |
| 2026-05-07 06:06 | 63.13295 | -78.70047 | 35420 ft | 512 kts | 256° |
| 2026-05-07 06:06 | 63.11790 | -78.85435 | 35423 ft | 512 kts | 256° |
| 2026-05-07 06:07 | 63.10269 | -79.00805 | 35419 ft | 512 kts | 256° |
| 2026-05-07 06:07 | 63.08729 | -79.16179 | 35420 ft | 512 kts | 256° |
| 2026-05-07 06:08 | 63.07174 | -79.31521 | 35408 ft | 512 kts | 256° |
| 2026-05-07 06:08 | 63.05602 | -79.46845 | 35411 ft | 512 kts | 256° |
| 2026-05-07 06:09 | 63.04015 | -79.62144 | 35414 ft | 512 kts | 256° |
| 2026-05-07 06:09 | 63.02414 | -79.77405 | 35415 ft | 511 kts | 256° |
| 2026-05-07 06:10 | 63.00798 | -79.92632 | 35406 ft | 511 kts | 256° |
| 2026-05-07 06:10 | 62.98831 | -80.07618 | 35409 ft | 510 kts | 251° |
| 2026-05-07 06:11 | 62.96588 | -80.22421 | 35404 ft | 510 kts | 250° |
| 2026-05-07 06:11 | 62.94285 | -80.37158 | 35406 ft | 510 kts | 250° |
| 2026-05-07 06:12 | 62.91964 | -80.51886 | 35407 ft | 510 kts | 250° |
| 2026-05-07 06:12 | 62.89638 | -80.66588 | 35404 ft | 510 kts | 250° |
| 2026-05-07 06:13 | 62.87315 | -80.81173 | 35410 ft | 510 kts | 250° |
| 2026-05-07 06:13 | 62.84961 | -80.95838 | 35412 ft | 510 kts | 249° |
| 2026-05-07 06:14 | 62.82595 | -81.10460 | 35404 ft | 510 kts | 250° |
| 2026-05-07 06:14 | 62.80215 | -81.25044 | 35404 ft | 509 kts | 250° |
| 2026-05-07 06:15 | 62.77818 | -81.39618 | 35409 ft | 509 kts | 249° |
| 2026-05-07 06:15 | 62.75409 | -81.54154 | 35402 ft | 509 kts | 249° |
| 2026-05-07 06:16 | 62.72984 | -81.68669 | 35408 ft | 509 kts | 249° |
| 2026-05-07 06:16 | 62.70549 | -81.83134 | 35407 ft | 509 kts | 249° |
| 2026-05-07 06:17 | 62.68109 | -81.97511 | 35405 ft | 509 kts | 249° |
| 2026-05-07 06:17 | 62.65640 | -82.11954 | 35400 ft | 509 kts | 249° |
| 2026-05-07 06:18 | 62.63158 | -82.26360 | 35400 ft | 509 kts | 249° |
| 2026-05-07 06:18 | 62.60661 | -82.40740 | 35404 ft | 508 kts | 249° |
| 2026-05-07 06:19 | 62.58157 | -82.55059 | 35401 ft | 506 kts | 249° |
| 2026-05-07 06:19 | 62.55645 | -82.69311 | 35399 ft | 506 kts | 249° |
| 2026-05-07 06:20 | 62.53117 | -82.83546 | 35400 ft | 506 kts | 248° |
| 2026-05-07 06:20 | 62.50574 | -82.97764 | 35406 ft | 506 kts | 248° |
| 2026-05-07 06:21 | 62.48018 | -83.11948 | 35406 ft | 506 kts | 248° |
| 2026-05-07 06:21 | 62.45446 | -83.26119 | 35408 ft | 507 kts | 248° |
| 2026-05-07 06:22 | 62.42876 | -83.40173 | 35403 ft | 506 kts | 248° |
| 2026-05-07 06:22 | 62.38978 | -83.61303 | 35411 ft | 505 kts | 248° |
| 2026-05-07 06:23 | 62.36365 | -83.75336 | 35406 ft | 504 kts | 248° |
| 2026-05-07 06:23 | 62.33744 | -83.89316 | 35409 ft | 504 kts | 248° |
| 2026-05-07 06:24 | 62.31107 | -84.03282 | 35410 ft | 504 kts | 248° |
| 2026-05-07 06:24 | 62.28455 | -84.17226 | 35410 ft | 504 kts | 248° |
| 2026-05-07 06:25 | 62.25800 | -84.31134 | 35413 ft | 503 kts | 248° |
| 2026-05-07 06:25 | 62.23122 | -84.45006 | 35412 ft | 503 kts | 248° |
| 2026-05-07 06:26 | 62.20432 | -84.58836 | 35423 ft | 503 kts | 247° |
| 2026-05-07 06:26 | 62.17728 | -84.72658 | 35417 ft | 503 kts | 247° |
| 2026-05-07 06:27 | 62.15013 | -84.86450 | 35425 ft | 503 kts | 247° |
| 2026-05-07 06:27 | 62.12286 | -85.00209 | 35428 ft | 503 kts | 248° |
| 2026-05-07 06:28 | 62.09556 | -85.13932 | 35431 ft | 501 kts | 248° |
| 2026-05-07 06:28 | 62.06807 | -85.27626 | 35432 ft | 501 kts | 247° |
| 2026-05-07 06:29 | 62.04043 | -85.41256 | 35440 ft | 501 kts | 247° |
| 2026-05-07 06:29 | 62.01264 | -85.54882 | 35440 ft | 501 kts | 247° |
| 2026-05-07 06:30 | 61.98478 | -85.68471 | 35437 ft | 501 kts | 247° |
| 2026-05-07 06:30 | 61.95672 | -85.82070 | 35445 ft | 503 kts | 247° |
| 2026-05-07 06:31 | 61.92851 | -85.95655 | 35443 ft | 503 kts | 247° |
| 2026-05-07 06:31 | 61.90012 | -86.09232 | 35450 ft | 503 kts | 247° |
| 2026-05-07 06:32 | 61.87179 | -86.22693 | 35451 ft | 503 kts | 246° |
| 2026-05-07 06:32 | 61.84317 | -86.36205 | 35459 ft | 501 kts | 246° |
| 2026-05-07 06:33 | 61.81455 | -86.49628 | 35453 ft | 501 kts | 246° |
| 2026-05-07 06:33 | 61.78573 | -86.63058 | 35461 ft | 502 kts | 246° |
| 2026-05-07 06:34 | 61.75673 | -86.76490 | 35465 ft | 502 kts | 246° |
| 2026-05-07 06:34 | 61.72761 | -86.89884 | 35473 ft | 502 kts | 246° |
| 2026-05-07 06:35 | 61.69832 | -87.03276 | 35476 ft | 502 kts | 246° |
| 2026-05-07 06:35 | 61.66895 | -87.16618 | 35469 ft | 502 kts | 246° |
| 2026-05-07 06:36 | 61.63937 | -87.29974 | 35485 ft | 504 kts | 246° |
| 2026-05-07 06:36 | 61.60956 | -87.43347 | 35485 ft | 505 kts | 246° |
| 2026-05-07 06:37 | 61.57958 | -87.56713 | 35490 ft | 506 kts | 246° |
| 2026-05-07 06:37 | 61.55457 | -87.67795 | 35491 ft | 506 kts | 246° |
| 2026-05-07 06:38 | 61.52436 | -87.81112 | 35498 ft | 506 kts | 245° |
| 2026-05-07 06:38 | 61.49402 | -87.94396 | 35496 ft | 506 kts | 245° |
| 2026-05-07 06:39 | 61.46346 | -88.07699 | 35509 ft | 507 kts | 245° |
| 2026-05-07 06:39 | 61.43275 | -88.20985 | 35509 ft | 507 kts | 245° |
| 2026-05-07 06:40 | 61.40192 | -88.34241 | 35523 ft | 507 kts | 245° |
| 2026-05-07 06:40 | 61.37113 | -88.47395 | 35523 ft | 507 kts | 245° |
| 2026-05-07 06:41 | 61.34005 | -88.60593 | 35517 ft | 507 kts | 245° |
| 2026-05-07 06:41 | 61.30885 | -88.73766 | 35527 ft | 507 kts | 245° |
| 2026-05-07 06:42 | 61.27758 | -88.86884 | 35533 ft | 506 kts | 245° |
| 2026-05-07 06:42 | 61.24620 | -88.99970 | 35538 ft | 505 kts | 244° |
| 2026-05-07 06:43 | 61.21473 | -89.13017 | 35538 ft | 506 kts | 244° |
| 2026-05-07 06:43 | 61.18310 | -89.26053 | 35549 ft | 506 kts | 244° |
| 2026-05-07 06:44 | 61.15136 | -89.39053 | 35552 ft | 506 kts | 244° |
| 2026-05-07 06:44 | 61.11947 | -89.52038 | 35556 ft | 506 kts | 244° |
| 2026-05-07 06:45 | 61.08749 | -89.64984 | 35567 ft | 506 kts | 244° |
| 2026-05-07 06:45 | 61.05538 | -89.77910 | 35563 ft | 506 kts | 244° |
| 2026-05-07 06:46 | 61.02332 | -89.90736 | 35563 ft | 505 kts | 244° |
| 2026-05-07 06:46 | 60.98889 | -90.03329 | 35557 ft | 504 kts | 239° |
| 2026-05-07 06:47 | 60.95071 | -90.15452 | 35574 ft | 505 kts | 237° |
| 2026-05-07 06:47 | 60.91165 | -90.27492 | 35580 ft | 505 kts | 237° |
| 2026-05-07 06:48 | 60.87252 | -90.39471 | 35585 ft | 505 kts | 237° |
| 2026-05-07 06:48 | 60.83330 | -90.51445 | 35589 ft | 505 kts | 237° |
| 2026-05-07 06:49 | 60.79403 | -90.63396 | 35600 ft | 505 kts | 237° |
| 2026-05-07 06:49 | 60.75469 | -90.75311 | 35599 ft | 505 kts | 237° |
| 2026-05-07 06:50 | 60.71524 | -90.87199 | 35612 ft | 505 kts | 237° |
| 2026-05-07 06:50 | 60.67573 | -90.99041 | 35612 ft | 504 kts | 237° |
| 2026-05-07 06:51 | 60.63614 | -91.10846 | 35625 ft | 505 kts | 237° |
| 2026-05-07 06:51 | 60.59667 | -91.22558 | 35627 ft | 504 kts | 237° |
| 2026-05-07 06:52 | 60.55682 | -91.34322 | 35631 ft | 505 kts | 237° |
| 2026-05-07 06:52 | 60.51688 | -91.46053 | 35638 ft | 505 kts | 237° |
| 2026-05-07 06:53 | 60.47676 | -91.57778 | 35645 ft | 505 kts | 237° |
| 2026-05-07 06:53 | 60.43656 | -91.69465 | 35659 ft | 505 kts | 236° |
| 2026-05-07 06:54 | 60.39627 | -91.81123 | 35656 ft | 505 kts | 236° |
| 2026-05-07 06:54 | 60.35595 | -91.92731 | 35672 ft | 505 kts | 236° |
| 2026-05-07 06:55 | 60.31572 | -92.04255 | 35661 ft | 505 kts | 236° |
| 2026-05-07 06:55 | 60.27519 | -92.15806 | 35682 ft | 505 kts | 236° |
| 2026-05-07 06:56 | 60.23452 | -92.27344 | 35688 ft | 505 kts | 236° |
| 2026-05-07 06:56 | 60.19378 | -92.38842 | 35688 ft | 505 kts | 236° |
| 2026-05-07 06:57 | 60.15291 | -92.50319 | 35696 ft | 505 kts | 236° |
| 2026-05-07 06:57 | 60.11197 | -92.61760 | 35701 ft | 504 kts | 236° |
| 2026-05-07 06:58 | 60.07096 | -92.73166 | 35710 ft | 504 kts | 236° |
| 2026-05-07 06:58 | 60.02987 | -92.84539 | 35712 ft | 504 kts | 236° |
| 2026-05-07 06:59 | 59.98867 | -92.95886 | 35726 ft | 504 kts | 236° |
| 2026-05-07 06:59 | 59.94737 | -93.07207 | 35730 ft | 504 kts | 236° |
| 2026-05-07 07:00 | 59.90597 | -93.18499 | 35756 ft | 505 kts | 235° |
| 2026-05-07 07:00 | 59.86447 | -93.29763 | 35723 ft | 505 kts | 236° |
| 2026-05-07 07:01 | 59.82287 | -93.41001 | 35745 ft | 504 kts | 236° |
| 2026-05-07 07:01 | 59.78131 | -93.52175 | 35764 ft | 503 kts | 236° |
| 2026-05-07 07:02 | 59.73965 | -93.63322 | 35767 ft | 503 kts | 235° |
| 2026-05-07 07:02 | 59.69788 | -93.74446 | 35774 ft | 503 kts | 235° |
| 2026-05-07 07:03 | 59.65604 | -93.85538 | 35781 ft | 503 kts | 235° |
| 2026-05-07 07:03 | 59.61438 | -93.96526 | 35790 ft | 503 kts | 235° |
| 2026-05-07 07:04 | 59.57241 | -94.07548 | 35793 ft | 502 kts | 235° |
| 2026-05-07 07:04 | 59.53032 | -94.18548 | 35806 ft | 502 kts | 235° |
| 2026-05-07 07:05 | 59.48821 | -94.29502 | 35805 ft | 501 kts | 235° |
| 2026-05-07 07:05 | 59.44606 | -94.40414 | 35805 ft | 501 kts | 235° |
| 2026-05-07 07:06 | 59.40381 | -94.51303 | 35824 ft | 501 kts | 234° |
| 2026-05-07 07:06 | 59.36152 | -94.62151 | 35823 ft | 500 kts | 234° |
| 2026-05-07 07:07 | 59.31918 | -94.72961 | 35841 ft | 500 kts | 234° |
| 2026-05-07 07:07 | 59.27672 | -94.83754 | 35848 ft | 500 kts | 234° |
| 2026-05-07 07:08 | 59.23421 | -94.94508 | 35857 ft | 500 kts | 234° |
| 2026-05-07 07:08 | 59.19163 | -95.05233 | 35856 ft | 500 kts | 234° |
| 2026-05-07 07:09 | 59.14896 | -95.15930 | 35866 ft | 499 kts | 234° |
| 2026-05-07 07:09 | 59.10657 | -95.26508 | 35876 ft | 499 kts | 234° |
| 2026-05-07 07:10 | 59.06384 | -95.37126 | 35886 ft | 499 kts | 234° |
| 2026-05-07 07:10 | 59.02096 | -95.47732 | 35890 ft | 499 kts | 234° |
| 2026-05-07 07:11 | 58.97803 | -95.58302 | 35889 ft | 499 kts | 234° |
| 2026-05-07 07:11 | 58.93501 | -95.68847 | 35903 ft | 499 kts | 234° |
| 2026-05-07 07:12 | 58.89181 | -95.79386 | 35904 ft | 499 kts | 234° |
| 2026-05-07 07:12 | 58.84864 | -95.89875 | 35917 ft | 499 kts | 234° |
| 2026-05-07 07:13 | 58.80533 | -96.00348 | 35911 ft | 499 kts | 233° |
| 2026-05-07 07:13 | 58.76229 | -96.10711 | 35915 ft | 499 kts | 233° |
| 2026-05-07 07:14 | 58.71886 | -96.21123 | 35915 ft | 499 kts | 233° |
| 2026-05-07 07:14 | 58.67532 | -96.31514 | 35917 ft | 499 kts | 233° |
| 2026-05-07 07:15 | 58.63175 | -96.41866 | 35927 ft | 498 kts | 233° |
| 2026-05-07 07:15 | 58.58812 | -96.52187 | 35936 ft | 498 kts | 233° |
| 2026-05-07 07:16 | 58.54430 | -96.62506 | 35934 ft | 498 kts | 233° |
| 2026-05-07 07:16 | 58.50046 | -96.72789 | 35933 ft | 498 kts | 233° |
| 2026-05-07 07:17 | 58.45652 | -96.83046 | 35946 ft | 498 kts | 233° |
| 2026-05-07 07:17 | 58.41281 | -96.93207 | 35945 ft | 498 kts | 233° |
| 2026-05-07 07:18 | 58.36874 | -97.03407 | 35951 ft | 498 kts | 233° |
| 2026-05-07 07:18 | 58.32464 | -97.13570 | 35949 ft | 498 kts | 233° |
| 2026-05-07 07:19 | 58.28043 | -97.23716 | 35956 ft | 498 kts | 233° |
| 2026-05-07 07:19 | 58.23616 | -97.33831 | 35956 ft | 498 kts | 232° |
| 2026-05-07 07:20 | 58.19180 | -97.43922 | 35950 ft | 497 kts | 232° |
| 2026-05-07 07:20 | 58.14740 | -97.53980 | 35966 ft | 497 kts | 232° |
| 2026-05-07 07:21 | 58.10284 | -97.64031 | 35973 ft | 497 kts | 232° |
| 2026-05-07 07:21 | 58.05833 | -97.74028 | 35972 ft | 497 kts | 232° |
| 2026-05-07 07:22 | 58.01375 | -97.83997 | 35967 ft | 497 kts | 232° |
| 2026-05-07 07:22 | 57.96936 | -97.93884 | 35976 ft | 497 kts | 232° |
| 2026-05-07 07:23 | 57.92429 | -98.03879 | 35984 ft | 497 kts | 232° |
| 2026-05-07 07:23 | 57.87982 | -98.13700 | 35972 ft | 497 kts | 232° |
| 2026-05-07 07:24 | 57.83497 | -98.23562 | 35976 ft | 497 kts | 232° |
| 2026-05-07 07:24 | 57.79000 | -98.33410 | 35997 ft | 497 kts | 232° |
| 2026-05-07 07:25 | 57.72249 | -98.48118 | 35993 ft | 497 kts | 232° |
| 2026-05-07 07:26 | 57.68496 | -98.56254 | 35984 ft | 496 kts | 232° |
| 2026-05-07 07:26 | 57.63979 | -98.66009 | 35984 ft | 496 kts | 231° |
| 2026-05-07 07:27 | 57.59453 | -98.75742 | 35990 ft | 496 kts | 231° |
| 2026-05-07 07:27 | 57.54927 | -98.85436 | 35991 ft | 496 kts | 231° |
| 2026-05-07 07:28 | 57.50390 | -98.95114 | 35992 ft | 496 kts | 231° |
| 2026-05-07 07:28 | 57.45842 | -99.04774 | 35979 ft | 496 kts | 231° |
| 2026-05-07 07:29 | 57.41294 | -99.14398 | 35994 ft | 496 kts | 231° |
| 2026-05-07 07:29 | 57.36740 | -99.23992 | 35993 ft | 496 kts | 231° |
| 2026-05-07 07:30 | 57.32179 | -99.33562 | 35993 ft | 496 kts | 231° |
| 2026-05-07 07:30 | 57.27610 | -99.43111 | 35996 ft | 496 kts | 231° |
| 2026-05-07 07:31 | 57.23035 | -99.52634 | 35995 ft | 496 kts | 231° |
| 2026-05-07 07:31 | 57.18480 | -99.62075 | 35998 ft | 495 kts | 231° |
| 2026-05-07 07:32 | 57.13890 | -99.71551 | 35997 ft | 495 kts | 231° |
| 2026-05-07 07:32 | 57.09299 | -99.80993 | 36001 ft | 495 kts | 231° |
| 2026-05-07 07:33 | 57.04696 | -99.90419 | 36003 ft | 495 kts | 231° |
| 2026-05-07 07:33 | 57.00081 | -99.99820 | 36004 ft | 496 kts | 230° |
| 2026-05-07 07:34 | 56.95314 | -100.08953 | 36006 ft | 497 kts | 229° |
| 2026-05-07 07:34 | 56.90444 | -100.17945 | 36007 ft | 497 kts | 228° |
| 2026-05-07 07:35 | 56.85571 | -100.26919 | 36004 ft | 497 kts | 229° |
| 2026-05-07 07:35 | 56.80704 | -100.35897 | 36010 ft | 497 kts | 229° |
| 2026-05-07 07:36 | 56.75841 | -100.44858 | 36008 ft | 497 kts | 229° |
| 2026-05-07 07:36 | 56.70971 | -100.53801 | 35972 ft | 497 kts | 229° |
| 2026-05-07 07:37 | 56.66096 | -100.62718 | 36004 ft | 498 kts | 229° |
| 2026-05-07 07:37 | 56.61199 | -100.71637 | 35999 ft | 498 kts | 229° |
| 2026-05-07 07:38 | 56.56305 | -100.80515 | 36008 ft | 498 kts | 229° |
| 2026-05-07 07:38 | 56.51396 | -100.89384 | 36012 ft | 498 kts | 229° |
| 2026-05-07 07:39 | 56.46484 | -100.98228 | 36024 ft | 498 kts | 228° |
| 2026-05-07 07:39 | 56.41568 | -101.07044 | 36026 ft | 498 kts | 228° |
| 2026-05-07 07:40 | 56.36673 | -101.15789 | 36027 ft | 498 kts | 228° |
| 2026-05-07 07:40 | 56.31740 | -101.24567 | 36028 ft | 498 kts | 228° |
| 2026-05-07 07:41 | 56.26801 | -101.33322 | 36024 ft | 498 kts | 228° |
| 2026-05-07 07:41 | 56.21857 | -101.42051 | 36025 ft | 498 kts | 228° |
| 2026-05-07 07:42 | 56.16902 | -101.50768 | 36016 ft | 498 kts | 229° |
| 2026-05-07 07:42 | 56.11939 | -101.59468 | 36026 ft | 499 kts | 229° |
| 2026-05-07 07:43 | 56.06965 | -101.68150 | 36030 ft | 499 kts | 228° |
| 2026-05-07 07:43 | 56.01982 | -101.76818 | 36029 ft | 499 kts | 228° |
| 2026-05-07 07:44 | 55.96993 | -101.85461 | 36029 ft | 500 kts | 228° |
| 2026-05-07 07:44 | 55.92000 | -101.94078 | 36030 ft | 500 kts | 228° |
| 2026-05-07 07:45 | 55.87023 | -102.02636 | 36029 ft | 500 kts | 229° |
| 2026-05-07 07:45 | 55.82010 | -102.11224 | 36028 ft | 500 kts | 229° |
| 2026-05-07 07:46 | 55.76991 | -102.19789 | 36031 ft | 500 kts | 229° |
| 2026-05-07 07:46 | 55.71963 | -102.28338 | 36029 ft | 500 kts | 229° |
| 2026-05-07 07:47 | 55.66931 | -102.36862 | 36030 ft | 500 kts | 228° |
| 2026-05-07 07:47 | 55.61888 | -102.45372 | 36028 ft | 501 kts | 229° |
| 2026-05-07 07:48 | 55.56827 | -102.53884 | 36030 ft | 502 kts | 229° |
| 2026-05-07 07:48 | 55.51752 | -102.62382 | 36029 ft | 502 kts | 229° |
| 2026-05-07 07:49 | 55.46706 | -102.70800 | 36031 ft | 502 kts | 229° |
| 2026-05-07 07:49 | 55.41619 | -102.79260 | 36023 ft | 502 kts | 229° |
| 2026-05-07 07:50 | 55.36529 | -102.87690 | 36022 ft | 502 kts | 229° |
| 2026-05-07 07:50 | 55.31429 | -102.96107 | 36020 ft | 502 kts | 229° |
| 2026-05-07 07:51 | 55.26336 | -103.04480 | 36022 ft | 502 kts | 229° |
| 2026-05-07 07:51 | 55.21232 | -103.12841 | 36018 ft | 502 kts | 229° |
| 2026-05-07 07:52 | 55.16128 | -103.21172 | 36014 ft | 502 kts | 228° |
| 2026-05-07 07:52 | 55.11013 | -103.29487 | 35985 ft | 502 kts | 229° |
| 2026-05-07 07:53 | 55.05905 | -103.37761 | 36011 ft | 500 kts | 228° |
| 2026-05-07 07:53 | 55.00841 | -103.45936 | 36009 ft | 499 kts | 228° |
| 2026-05-07 07:54 | 54.95729 | -103.54161 | 36004 ft | 499 kts | 228° |
| 2026-05-07 07:54 | 54.90619 | -103.62351 | 36008 ft | 499 kts | 228° |
| 2026-05-07 07:55 | 54.85504 | -103.70519 | 35954 ft | 499 kts | 228° |
| 2026-05-07 07:55 | 54.80379 | -103.78672 | 36007 ft | 499 kts | 228° |
| 2026-05-07 07:56 | 54.75230 | -103.86745 | 36001 ft | 500 kts | 227° |
| 2026-05-07 07:56 | 54.69983 | -103.94650 | 35989 ft | 501 kts | 226° |
| 2026-05-07 07:57 | 54.64701 | -104.02523 | 36005 ft | 502 kts | 226° |
| 2026-05-07 07:57 | 54.59453 | -104.10340 | 36004 ft | 502 kts | 226° |
| 2026-05-07 07:58 | 54.54176 | -104.18192 | 36002 ft | 501 kts | 226° |
| 2026-05-07 07:58 | 54.48906 | -104.26015 | 36000 ft | 500 kts | 226° |
| 2026-05-07 07:59 | 54.43635 | -104.33813 | 36003 ft | 500 kts | 226° |
| 2026-05-07 07:59 | 54.38357 | -104.41593 | 35999 ft | 500 kts | 226° |
| 2026-05-07 08:00 | 54.33078 | -104.49346 | 36002 ft | 500 kts | 226° |
| 2026-05-07 08:00 | 54.27789 | -104.57085 | 36003 ft | 499 kts | 226° |
| 2026-05-07 08:01 | 54.22516 | -104.64773 | 35994 ft | 498 kts | 226° |
| 2026-05-07 08:01 | 54.17239 | -104.72441 | 35992 ft | 498 kts | 226° |
| 2026-05-07 08:02 | 54.11965 | -104.80082 | 35992 ft | 498 kts | 226° |
| 2026-05-07 08:02 | 54.06679 | -104.87710 | 35994 ft | 498 kts | 226° |
| 2026-05-07 08:03 | 54.01394 | -104.95311 | 35983 ft | 497 kts | 226° |
| 2026-05-07 08:03 | 53.96121 | -105.02865 | 35990 ft | 495 kts | 226° |
| 2026-05-07 08:04 | 53.90859 | -105.10381 | 35993 ft | 494 kts | 226° |
| 2026-05-07 08:04 | 53.85593 | -105.17880 | 35990 ft | 494 kts | 226° |
| 2026-05-07 08:05 | 53.80324 | -105.25356 | 35991 ft | 494 kts | 225° |
| 2026-05-07 08:05 | 53.75047 | -105.32818 | 35989 ft | 495 kts | 226° |
| 2026-05-07 08:06 | 53.69757 | -105.40272 | 35995 ft | 496 kts | 225° |
| 2026-05-07 08:06 | 53.64453 | -105.47720 | 35992 ft | 496 kts | 225° |
| 2026-05-07 08:07 | 53.59148 | -105.55145 | 35995 ft | 496 kts | 225° |
| 2026-05-07 08:07 | 53.53833 | -105.62558 | 35993 ft | 496 kts | 225° |
| 2026-05-07 08:08 | 53.48518 | -105.69947 | 35984 ft | 496 kts | 225° |
| 2026-05-07 08:08 | 53.43213 | -105.77295 | 35965 ft | 493 kts | 225° |
| 2026-05-07 08:09 | 53.37914 | -105.84612 | 35959 ft | 494 kts | 225° |
| 2026-05-07 08:09 | 53.32613 | -105.91910 | 35950 ft | 494 kts | 225° |
| 2026-05-07 08:10 | 53.27491 | -105.98938 | 35984 ft | 494 kts | 225° |
| 2026-05-07 08:10 | 53.22176 | -106.06205 | 35948 ft | 494 kts | 225° |
| 2026-05-07 08:11 | 53.16874 | -106.13428 | 35980 ft | 490 kts | 225° |
| 2026-05-07 08:11 | 53.11601 | -106.20588 | 35981 ft | 489 kts | 225° |
| 2026-05-07 08:12 | 53.06325 | -106.27735 | 35981 ft | 490 kts | 225° |
| 2026-05-07 08:12 | 53.01932 | -106.33667 | 35978 ft | 490 kts | 225° |
| 2026-05-07 08:13 | 52.96637 | -106.40794 | 35982 ft | 490 kts | 225° |
| 2026-05-07 08:13 | 52.90486 | -106.49043 | 35972 ft | 489 kts | 224° |
| 2026-05-07 08:14 | 52.86058 | -106.54960 | 35992 ft | 488 kts | 224° |
| 2026-05-07 08:14 | 52.80775 | -106.62002 | 35969 ft | 488 kts | 225° |
| 2026-05-07 08:15 | 52.75479 | -106.69041 | 35990 ft | 488 kts | 224° |
| 2026-05-07 08:15 | 52.70182 | -106.76056 | 35987 ft | 488 kts | 224° |
| 2026-05-07 08:16 | 52.64878 | -106.83056 | 35979 ft | 488 kts | 224° |
| 2026-05-07 08:16 | 52.59586 | -106.90018 | 35980 ft | 487 kts | 224° |
| 2026-05-07 08:17 | 52.54291 | -106.96963 | 35981 ft | 487 kts | 224° |
| 2026-05-07 08:17 | 52.48998 | -107.03884 | 35981 ft | 487 kts | 224° |
| 2026-05-07 08:18 | 52.43690 | -107.10804 | 35982 ft | 487 kts | 224° |
| 2026-05-07 08:18 | 52.38415 | -107.17657 | 35986 ft | 487 kts | 224° |
| 2026-05-07 08:19 | 52.33080 | -107.24564 | 35986 ft | 485 kts | 224° |
| 2026-05-07 08:19 | 52.27828 | -107.31345 | 35989 ft | 484 kts | 224° |
| 2026-05-07 08:20 | 52.22543 | -107.38148 | 35988 ft | 484 kts | 224° |
| 2026-05-07 08:20 | 52.17257 | -107.44933 | 35985 ft | 484 kts | 224° |
| 2026-05-07 08:21 | 52.11966 | -107.51699 | 35983 ft | 483 kts | 224° |
| 2026-05-07 08:21 | 52.06650 | -107.58476 | 35978 ft | 482 kts | 223° |
| 2026-05-07 08:22 | 52.01406 | -107.65143 | 35978 ft | 482 kts | 223° |
| 2026-05-07 08:22 | 51.96089 | -107.71882 | 35981 ft | 482 kts | 223° |
| 2026-05-07 08:23 | 51.90803 | -107.78561 | 35981 ft | 482 kts | 223° |
| 2026-05-07 08:23 | 51.85513 | -107.85224 | 35975 ft | 482 kts | 223° |
| 2026-05-07 08:24 | 51.80223 | -107.91865 | 35975 ft | 481 kts | 223° |
| 2026-05-07 08:24 | 51.74971 | -107.98440 | 35974 ft | 481 kts | 223° |
| 2026-05-07 08:25 | 51.69682 | -108.05042 | 35975 ft | 481 kts | 223° |
| 2026-05-07 08:25 | 51.64386 | -108.11631 | 35969 ft | 481 kts | 223° |
| 2026-05-07 08:26 | 51.56446 | -108.21473 | 35966 ft | 479 kts | 222° |
| 2026-05-07 08:26 | 51.51162 | -108.27997 | 35971 ft | 479 kts | 222° |
| 2026-05-07 08:27 | 51.45877 | -108.34505 | 35951 ft | 479 kts | 222° |
| 2026-05-07 08:27 | 51.40589 | -108.40997 | 35963 ft | 479 kts | 222° |
| 2026-05-07 08:28 | 51.35291 | -108.47480 | 35933 ft | 479 kts | 222° |
| 2026-05-07 08:28 | 51.30000 | -108.53935 | 35951 ft | 478 kts | 221° |
| 2026-05-07 08:29 | 51.24714 | -108.60367 | 35955 ft | 477 kts | 221° |
| 2026-05-07 08:29 | 51.19425 | -108.66782 | 35946 ft | 478 kts | 221° |
| 2026-05-07 08:30 | 51.14129 | -108.73189 | 35954 ft | 478 kts | 221° |
| 2026-05-07 08:30 | 51.08828 | -108.79580 | 35945 ft | 478 kts | 221° |
| 2026-05-07 08:31 | 51.03527 | -108.85953 | 35943 ft | 478 kts | 221° |
| 2026-05-07 08:31 | 50.98218 | -108.92318 | 35943 ft | 478 kts | 221° |
| 2026-05-07 08:32 | 50.92908 | -108.98663 | 35947 ft | 478 kts | 221° |
| 2026-05-07 08:32 | 50.87588 | -109.05003 | 35942 ft | 478 kts | 221° |
| 2026-05-07 08:33 | 50.82265 | -109.11329 | 35922 ft | 478 kts | 221° |
| 2026-05-07 08:33 | 50.76949 | -109.17626 | 35942 ft | 476 kts | 221° |
| 2026-05-07 08:34 | 50.71645 | -109.23892 | 35938 ft | 476 kts | 221° |
| 2026-05-07 08:34 | 50.66340 | -109.30141 | 35933 ft | 476 kts | 221° |
| 2026-05-07 08:35 | 50.61030 | -109.36379 | 35934 ft | 476 kts | 220° |
| 2026-05-07 08:35 | 50.55965 | -109.42311 | 35917 ft | 476 kts | 220° |